<?xml version="1.0" encoding="UTF-8" standalone="no" ?>
<gpx xmlns="http://www.topografix.com/GPX/1/1" xmlns:xsi="http://www.w3.org/2001/XMLSchema-instance" xsi:schemaLocation="http://www.topografix.com/GPX/1/1 http://www.topografix.com/GPX/1/1/gpx.xsd" version="1.1" creator="VisuGPX - https://www.visugpx.com">
  <metadata>
    <name>Circuit 48 - Fédéral Aude Pyrénées - 19578 - UtagawaVTT.com</name>
  </metadata>
  <trk>
    <name><![CDATA[Circuit 48 - Fédéral Aude Pyrénées - 19578 - UtagawaVTT.com]]></name>
    <trkseg>
      <trkpt lat="43.01536" lon="1.97428">
        <ele>416.41806</ele>
        <time>2018-10-03T07:09:09Z</time>
      </trkpt>
      <trkpt lat="43.01508" lon="1.97373">
        <ele>411.824982</ele>
        <time>2018-10-03T07:09:38Z</time>
      </trkpt>
      <trkpt lat="43.0148" lon="1.97327">
        <ele>406.01947</ele>
        <time>2018-10-03T07:09:43Z</time>
      </trkpt>
      <trkpt lat="43.01441" lon="1.9728">
        <ele>398.668396</ele>
        <time>2018-10-03T07:09:48Z</time>
      </trkpt>
      <trkpt lat="43.01401" lon="1.97215">
        <ele>394.091248</ele>
        <time>2018-10-03T07:09:54Z</time>
      </trkpt>
      <trkpt lat="43.01379" lon="1.97135">
        <ele>391.801239</ele>
        <time>2018-10-03T07:10:00Z</time>
      </trkpt>
      <trkpt lat="43.01373" lon="1.97062">
        <ele>390.26001</ele>
        <time>2018-10-03T07:10:06Z</time>
      </trkpt>
      <trkpt lat="43.0138" lon="1.96997">
        <ele>386.547516</ele>
        <time>2018-10-03T07:10:11Z</time>
      </trkpt>
      <trkpt lat="43.01403" lon="1.96902">
        <ele>380.542084</ele>
        <time>2018-10-03T07:10:18Z</time>
      </trkpt>
      <trkpt lat="43.01421" lon="1.96809">
        <ele>378.372009</ele>
        <time>2018-10-03T07:10:24Z</time>
      </trkpt>
      <trkpt lat="43.0145" lon="1.96737">
        <ele>372.765747</ele>
        <time>2018-10-03T07:10:29Z</time>
      </trkpt>
      <trkpt lat="43.0151" lon="1.96605">
        <ele>357.25882</ele>
        <time>2018-10-03T07:10:40Z</time>
      </trkpt>
      <trkpt lat="43.01517" lon="1.96576">
        <ele>353.516846</ele>
        <time>2018-10-03T07:10:43Z</time>
      </trkpt>
      <trkpt lat="43.01524" lon="1.96558">
        <ele>350.97583</ele>
        <time>2018-10-03T07:10:47Z</time>
      </trkpt>
      <trkpt lat="43.01547" lon="1.96557">
        <ele>349.585052</ele>
        <time>2018-10-03T07:10:53Z</time>
      </trkpt>
      <trkpt lat="43.01572" lon="1.96553">
        <ele>349.763794</ele>
        <time>2018-10-03T07:11:01Z</time>
      </trkpt>
      <trkpt lat="43.01714" lon="1.96596">
        <ele>348.024292</ele>
        <time>2018-10-03T07:11:17Z</time>
      </trkpt>
      <trkpt lat="43.01737" lon="1.96617">
        <ele>346.814148</ele>
        <time>2018-10-03T07:11:21Z</time>
      </trkpt>
      <trkpt lat="43.0176" lon="1.96658">
        <ele>345.776947</ele>
        <time>2018-10-03T07:11:26Z</time>
      </trkpt>
      <trkpt lat="43.01798" lon="1.96769">
        <ele>346.725006</ele>
        <time>2018-10-03T07:11:46Z</time>
      </trkpt>
      <trkpt lat="43.01902" lon="1.96828">
        <ele>338.934814</ele>
        <time>2018-10-03T07:12:01Z</time>
      </trkpt>
      <trkpt lat="43.01936" lon="1.96791">
        <ele>337.247711</ele>
        <time>2018-10-03T07:12:07Z</time>
      </trkpt>
      <trkpt lat="43.01964" lon="1.96758">
        <ele>337.229462</ele>
        <time>2018-10-03T07:12:12Z</time>
      </trkpt>
      <trkpt lat="43.01991" lon="1.96731">
        <ele>338.127502</ele>
        <time>2018-10-03T07:12:18Z</time>
      </trkpt>
      <trkpt lat="43.02054" lon="1.96731">
        <ele>339.461792</ele>
        <time>2018-10-03T07:12:33Z</time>
      </trkpt>
      <trkpt lat="43.02103" lon="1.96729">
        <ele>339.600006</ele>
        <time>2018-10-03T07:12:42Z</time>
      </trkpt>
      <trkpt lat="43.0215" lon="1.96714">
        <ele>339.230438</ele>
        <time>2018-10-03T07:12:51Z</time>
      </trkpt>
      <trkpt lat="43.02156" lon="1.96685">
        <ele>339.027313</ele>
        <time>2018-10-03T07:12:57Z</time>
      </trkpt>
      <trkpt lat="43.02154" lon="1.96664">
        <ele>339</ele>
        <time>2018-10-03T07:13:05Z</time>
      </trkpt>
      <trkpt lat="43.02147" lon="1.96626">
        <ele>339</ele>
        <time>2018-10-03T07:13:16Z</time>
      </trkpt>
      <trkpt lat="43.02149" lon="1.96595">
        <ele>338.752747</ele>
        <time>2018-10-03T07:13:24Z</time>
      </trkpt>
      <trkpt lat="43.02158" lon="1.96526">
        <ele>338.630005</ele>
        <time>2018-10-03T07:13:31Z</time>
      </trkpt>
      <trkpt lat="43.02164" lon="1.96509">
        <ele>338.769989</ele>
        <time>2018-10-03T07:13:37Z</time>
      </trkpt>
      <trkpt lat="43.02183" lon="1.96424">
        <ele>339.292725</ele>
        <time>2018-10-03T07:13:46Z</time>
      </trkpt>
      <trkpt lat="43.02184" lon="1.96389">
        <ele>340.047668</ele>
        <time>2018-10-03T07:13:52Z</time>
      </trkpt>
      <trkpt lat="43.02186" lon="1.96377">
        <ele>340.166229</ele>
        <time>2018-10-03T07:14:00Z</time>
      </trkpt>
      <trkpt lat="43.02182" lon="1.96415">
        <ele>339.548523</ele>
        <time>2018-10-03T07:14:15Z</time>
      </trkpt>
      <trkpt lat="43.02176" lon="1.96449">
        <ele>339</ele>
        <time>2018-10-03T07:14:23Z</time>
      </trkpt>
      <trkpt lat="43.02166" lon="1.96449">
        <ele>339.114288</ele>
        <time>2018-10-03T07:14:39Z</time>
      </trkpt>
      <trkpt lat="43.02168" lon="1.96427">
        <ele>339.58551</ele>
        <time>2018-10-03T07:14:50Z</time>
      </trkpt>
      <trkpt lat="43.02172" lon="1.96407">
        <ele>340.145996</ele>
        <time>2018-10-03T07:15:03Z</time>
      </trkpt>
      <trkpt lat="43.02197" lon="1.9641">
        <ele>339.191956</ele>
        <time>2018-10-03T07:15:17Z</time>
      </trkpt>
      <trkpt lat="43.02257" lon="1.96416">
        <ele>338.356262</ele>
        <time>2018-10-03T07:15:31Z</time>
      </trkpt>
      <trkpt lat="43.02375" lon="1.96384">
        <ele>337.479065</ele>
        <time>2018-10-03T07:15:40Z</time>
      </trkpt>
      <trkpt lat="43.02404" lon="1.96362">
        <ele>338</ele>
        <time>2018-10-03T07:15:46Z</time>
      </trkpt>
      <trkpt lat="43.02433" lon="1.96344">
        <ele>338</ele>
        <time>2018-10-03T07:15:51Z</time>
      </trkpt>
      <trkpt lat="43.02458" lon="1.96324">
        <ele>338.728638</ele>
        <time>2018-10-03T07:15:56Z</time>
      </trkpt>
      <trkpt lat="43.02508" lon="1.96274">
        <ele>341.142487</ele>
        <time>2018-10-03T07:16:07Z</time>
      </trkpt>
      <trkpt lat="43.0253" lon="1.96243">
        <ele>342.212585</ele>
        <time>2018-10-03T07:16:13Z</time>
      </trkpt>
      <trkpt lat="43.02552" lon="1.96209">
        <ele>342.137482</ele>
        <time>2018-10-03T07:16:19Z</time>
      </trkpt>
      <trkpt lat="43.02572" lon="1.96168">
        <ele>342.03772</ele>
        <time>2018-10-03T07:16:25Z</time>
      </trkpt>
      <trkpt lat="43.02598" lon="1.96099">
        <ele>343.433716</ele>
        <time>2018-10-03T07:16:39Z</time>
      </trkpt>
      <trkpt lat="43.02608" lon="1.96059">
        <ele>344.579987</ele>
        <time>2018-10-03T07:16:45Z</time>
      </trkpt>
      <trkpt lat="43.02611" lon="1.96046">
        <ele>345.079987</ele>
        <time>2018-10-03T07:16:50Z</time>
      </trkpt>
      <trkpt lat="43.02627" lon="1.95926">
        <ele>347.279846</ele>
        <time>2018-10-03T07:17:04Z</time>
      </trkpt>
      <trkpt lat="43.02635" lon="1.95872">
        <ele>349.785004</ele>
        <time>2018-10-03T07:17:11Z</time>
      </trkpt>
      <trkpt lat="43.02636" lon="1.95845">
        <ele>350.970001</ele>
        <time>2018-10-03T07:17:18Z</time>
      </trkpt>
      <trkpt lat="43.02643" lon="1.95766">
        <ele>351.625641</ele>
        <time>2018-10-03T07:17:26Z</time>
      </trkpt>
      <trkpt lat="43.02642" lon="1.95739">
        <ele>348.831238</ele>
        <time>2018-10-03T07:17:33Z</time>
      </trkpt>
      <trkpt lat="43.02663" lon="1.95634">
        <ele>340.740631</ele>
        <time>2018-10-03T07:17:45Z</time>
      </trkpt>
      <trkpt lat="43.02697" lon="1.95503">
        <ele>343.091309</ele>
        <time>2018-10-03T07:17:55Z</time>
      </trkpt>
      <trkpt lat="43.02718" lon="1.95464">
        <ele>343.333405</ele>
        <time>2018-10-03T07:18:01Z</time>
      </trkpt>
      <trkpt lat="43.02734" lon="1.95424">
        <ele>342.802765</ele>
        <time>2018-10-03T07:18:06Z</time>
      </trkpt>
      <trkpt lat="43.02755" lon="1.95382">
        <ele>342.487335</ele>
        <time>2018-10-03T07:18:12Z</time>
      </trkpt>
      <trkpt lat="43.02792" lon="1.95337">
        <ele>342.973114</ele>
        <time>2018-10-03T07:18:21Z</time>
      </trkpt>
      <trkpt lat="43.02815" lon="1.95313">
        <ele>343.00174</ele>
        <time>2018-10-03T07:18:25Z</time>
      </trkpt>
      <trkpt lat="43.02827" lon="1.95295">
        <ele>342.402985</ele>
        <time>2018-10-03T07:18:28Z</time>
      </trkpt>
      <trkpt lat="43.02859" lon="1.9526">
        <ele>341.738098</ele>
        <time>2018-10-03T07:18:34Z</time>
      </trkpt>
      <trkpt lat="43.02895" lon="1.9523">
        <ele>341.725006</ele>
        <time>2018-10-03T07:18:41Z</time>
      </trkpt>
      <trkpt lat="43.0297" lon="1.95164">
        <ele>342.125031</ele>
        <time>2018-10-03T07:18:56Z</time>
      </trkpt>
      <trkpt lat="43.03002" lon="1.95125">
        <ele>341.190002</ele>
        <time>2018-10-03T07:19:02Z</time>
      </trkpt>
      <trkpt lat="43.0303" lon="1.95096">
        <ele>341.546295</ele>
        <time>2018-10-03T07:19:07Z</time>
      </trkpt>
      <trkpt lat="43.03055" lon="1.95067">
        <ele>341.912598</ele>
        <time>2018-10-03T07:19:12Z</time>
      </trkpt>
      <trkpt lat="43.03066" lon="1.95056">
        <ele>342.074219</ele>
        <time>2018-10-03T07:19:18Z</time>
      </trkpt>
      <trkpt lat="43.03116" lon="1.94989">
        <ele>340.802002</ele>
        <time>2018-10-03T07:19:32Z</time>
      </trkpt>
      <trkpt lat="43.03131" lon="1.94972">
        <ele>339.704468</ele>
        <time>2018-10-03T07:19:37Z</time>
      </trkpt>
      <trkpt lat="43.03147" lon="1.94945">
        <ele>338.411652</ele>
        <time>2018-10-03T07:19:43Z</time>
      </trkpt>
      <trkpt lat="43.03192" lon="1.94841">
        <ele>338.755005</ele>
        <time>2018-10-03T07:19:54Z</time>
      </trkpt>
      <trkpt lat="43.03214" lon="1.94771">
        <ele>337.906586</ele>
        <time>2018-10-03T07:20:00Z</time>
      </trkpt>
      <trkpt lat="43.03264" lon="1.9464">
        <ele>339.836487</ele>
        <time>2018-10-03T07:20:17Z</time>
      </trkpt>
      <trkpt lat="43.03272" lon="1.94615">
        <ele>339.518524</ele>
        <time>2018-10-03T07:20:24Z</time>
      </trkpt>
      <trkpt lat="43.03322" lon="1.94483">
        <ele>340.265991</ele>
        <time>2018-10-03T07:20:40Z</time>
      </trkpt>
      <trkpt lat="43.03338" lon="1.94454">
        <ele>340.215881</ele>
        <time>2018-10-03T07:20:45Z</time>
      </trkpt>
      <trkpt lat="43.03393" lon="1.94351">
        <ele>338.090973</ele>
        <time>2018-10-03T07:20:58Z</time>
      </trkpt>
      <trkpt lat="43.03418" lon="1.94309">
        <ele>337.693756</ele>
        <time>2018-10-03T07:21:03Z</time>
      </trkpt>
      <trkpt lat="43.03453" lon="1.94269">
        <ele>337.174988</ele>
        <time>2018-10-03T07:21:14Z</time>
      </trkpt>
      <trkpt lat="43.03485" lon="1.9425">
        <ele>337.757507</ele>
        <time>2018-10-03T07:21:20Z</time>
      </trkpt>
      <trkpt lat="43.03515" lon="1.94237">
        <ele>338.867218</ele>
        <time>2018-10-03T07:21:26Z</time>
      </trkpt>
      <trkpt lat="43.03545" lon="1.94225">
        <ele>339.453979</ele>
        <time>2018-10-03T07:21:31Z</time>
      </trkpt>
      <trkpt lat="43.03579" lon="1.94214">
        <ele>339.316528</ele>
        <time>2018-10-03T07:21:37Z</time>
      </trkpt>
      <trkpt lat="43.03626" lon="1.94205">
        <ele>337.733002</ele>
        <time>2018-10-03T07:21:44Z</time>
      </trkpt>
      <trkpt lat="43.03669" lon="1.942">
        <ele>335.313568</ele>
        <time>2018-10-03T07:21:50Z</time>
      </trkpt>
      <trkpt lat="43.0369" lon="1.94206">
        <ele>334.769409</ele>
        <time>2018-10-03T07:21:53Z</time>
      </trkpt>
      <trkpt lat="43.03712" lon="1.94205">
        <ele>333.84613</ele>
        <time>2018-10-03T07:21:56Z</time>
      </trkpt>
      <trkpt lat="43.0375" lon="1.94216">
        <ele>333.092194</ele>
        <time>2018-10-03T07:22:02Z</time>
      </trkpt>
      <trkpt lat="43.03784" lon="1.94221">
        <ele>331.884186</ele>
        <time>2018-10-03T07:22:08Z</time>
      </trkpt>
      <trkpt lat="43.03794" lon="1.94224">
        <ele>331.769257</ele>
        <time>2018-10-03T07:22:13Z</time>
      </trkpt>
      <trkpt lat="43.03863" lon="1.94233">
        <ele>330.418243</ele>
        <time>2018-10-03T07:22:22Z</time>
      </trkpt>
      <trkpt lat="43.0389" lon="1.94241">
        <ele>329.757477</ele>
        <time>2018-10-03T07:22:27Z</time>
      </trkpt>
      <trkpt lat="43.03986" lon="1.94263">
        <ele>328.518921</ele>
        <time>2018-10-03T07:22:38Z</time>
      </trkpt>
      <trkpt lat="43.04017" lon="1.94252">
        <ele>328.716248</ele>
        <time>2018-10-03T07:22:47Z</time>
      </trkpt>
      <trkpt lat="43.04055" lon="1.94258">
        <ele>329.605011</ele>
        <time>2018-10-03T07:22:55Z</time>
      </trkpt>
      <trkpt lat="43.04166" lon="1.9427">
        <ele>329.29126</ele>
        <time>2018-10-03T07:23:09Z</time>
      </trkpt>
      <trkpt lat="43.042" lon="1.94273">
        <ele>328.627136</ele>
        <time>2018-10-03T07:23:15Z</time>
      </trkpt>
      <trkpt lat="43.04223" lon="1.94279">
        <ele>328.210693</ele>
        <time>2018-10-03T07:23:22Z</time>
      </trkpt>
      <trkpt lat="43.04328" lon="1.94279">
        <ele>325.868835</ele>
        <time>2018-10-03T07:23:39Z</time>
      </trkpt>
      <trkpt lat="43.04368" lon="1.94291">
        <ele>325.162506</ele>
        <time>2018-10-03T07:23:45Z</time>
      </trkpt>
      <trkpt lat="43.04388" lon="1.94295">
        <ele>324.787506</ele>
        <time>2018-10-03T07:23:50Z</time>
      </trkpt>
      <trkpt lat="43.04443" lon="1.94304">
        <ele>325.077515</ele>
        <time>2018-10-03T07:23:58Z</time>
      </trkpt>
      <trkpt lat="43.04483" lon="1.94299">
        <ele>326.114624</ele>
        <time>2018-10-03T07:24:02Z</time>
      </trkpt>
      <trkpt lat="43.04481" lon="1.94304">
        <ele>326.156982</ele>
        <time>2018-10-03T07:24:08Z</time>
      </trkpt>
      <trkpt lat="43.045" lon="1.94305">
        <ele>326.783417</ele>
        <time>2018-10-03T07:24:52Z</time>
      </trkpt>
      <trkpt lat="43.04515" lon="1.94312">
        <ele>327.533173</ele>
        <time>2018-10-03T07:24:59Z</time>
      </trkpt>
      <trkpt lat="43.04569" lon="1.94322">
        <ele>329.933563</ele>
        <time>2018-10-03T07:25:15Z</time>
      </trkpt>
      <trkpt lat="43.04596" lon="1.94323">
        <ele>330.945007</ele>
        <time>2018-10-03T07:25:24Z</time>
      </trkpt>
      <trkpt lat="43.04624" lon="1.94322">
        <ele>330.904999</ele>
        <time>2018-10-03T07:25:32Z</time>
      </trkpt>
      <trkpt lat="43.04648" lon="1.94327">
        <ele>330.812378</ele>
        <time>2018-10-03T07:25:37Z</time>
      </trkpt>
      <trkpt lat="43.04752" lon="1.9435">
        <ele>328.845001</ele>
        <time>2018-10-03T07:25:43Z</time>
      </trkpt>
      <trkpt lat="43.04771" lon="1.94356">
        <ele>328.612488</ele>
        <time>2018-10-03T07:25:46Z</time>
      </trkpt>
      <trkpt lat="43.04797" lon="1.94361">
        <ele>329.30249</ele>
        <time>2018-10-03T07:25:50Z</time>
      </trkpt>
      <trkpt lat="43.04815" lon="1.94366">
        <ele>329.88501</ele>
        <time>2018-10-03T07:25:53Z</time>
      </trkpt>
      <trkpt lat="43.04831" lon="1.94378">
        <ele>329.992493</ele>
        <time>2018-10-03T07:25:56Z</time>
      </trkpt>
      <trkpt lat="43.04858" lon="1.94391">
        <ele>329.825012</ele>
        <time>2018-10-03T07:26:00Z</time>
      </trkpt>
      <trkpt lat="43.04895" lon="1.94412">
        <ele>328.977509</ele>
        <time>2018-10-03T07:26:06Z</time>
      </trkpt>
      <trkpt lat="43.04924" lon="1.94436">
        <ele>328.62439</ele>
        <time>2018-10-03T07:26:11Z</time>
      </trkpt>
      <trkpt lat="43.04962" lon="1.94464">
        <ele>327.91571</ele>
        <time>2018-10-03T07:26:17Z</time>
      </trkpt>
      <trkpt lat="43.04995" lon="1.94492">
        <ele>327.595154</ele>
        <time>2018-10-03T07:26:23Z</time>
      </trkpt>
      <trkpt lat="43.05063" lon="1.94539">
        <ele>327.837494</ele>
        <time>2018-10-03T07:26:34Z</time>
      </trkpt>
      <trkpt lat="43.05099" lon="1.94569">
        <ele>327.547485</ele>
        <time>2018-10-03T07:26:40Z</time>
      </trkpt>
      <trkpt lat="43.05165" lon="1.94614">
        <ele>326.67334</ele>
        <time>2018-10-03T07:26:52Z</time>
      </trkpt>
      <trkpt lat="43.05198" lon="1.94639">
        <ele>326.515991</ele>
        <time>2018-10-03T07:26:58Z</time>
      </trkpt>
      <trkpt lat="43.0525" lon="1.94674">
        <ele>326.543762</ele>
        <time>2018-10-03T07:27:07Z</time>
      </trkpt>
      <trkpt lat="43.05318" lon="1.9471">
        <ele>327.380646</ele>
        <time>2018-10-03T07:27:19Z</time>
      </trkpt>
      <trkpt lat="43.05383" lon="1.94739">
        <ele>328.611237</ele>
        <time>2018-10-03T07:27:30Z</time>
      </trkpt>
      <trkpt lat="43.05417" lon="1.9475">
        <ele>328.801239</ele>
        <time>2018-10-03T07:27:36Z</time>
      </trkpt>
      <trkpt lat="43.05517" lon="1.94769">
        <ele>329.234985</ele>
        <time>2018-10-03T07:27:53Z</time>
      </trkpt>
      <trkpt lat="43.05548" lon="1.94777">
        <ele>329.3284</ele>
        <time>2018-10-03T07:27:59Z</time>
      </trkpt>
      <trkpt lat="43.05563" lon="1.94787">
        <ele>329.483978</ele>
        <time>2018-10-03T07:28:07Z</time>
      </trkpt>
      <trkpt lat="43.05562" lon="1.94803">
        <ele>330.177612</ele>
        <time>2018-10-03T07:28:17Z</time>
      </trkpt>
      <trkpt lat="43.05551" lon="1.94863">
        <ele>333.173035</ele>
        <time>2018-10-03T07:28:41Z</time>
      </trkpt>
      <trkpt lat="43.05554" lon="1.94847">
        <ele>332.334106</ele>
        <time>2018-10-03T07:28:50Z</time>
      </trkpt>
      <trkpt lat="43.05546" lon="1.94908">
        <ele>336.142517</ele>
        <time>2018-10-03T07:29:15Z</time>
      </trkpt>
      <trkpt lat="43.05529" lon="1.95003">
        <ele>343.712494</ele>
        <time>2018-10-03T07:29:44Z</time>
      </trkpt>
      <trkpt lat="43.05527" lon="1.95042">
        <ele>347.031189</ele>
        <time>2018-10-03T07:30:11Z</time>
      </trkpt>
      <trkpt lat="43.05528" lon="1.95071">
        <ele>349.407501</ele>
        <time>2018-10-03T07:30:30Z</time>
      </trkpt>
      <trkpt lat="43.0553" lon="1.95089">
        <ele>350.512512</ele>
        <time>2018-10-03T07:30:43Z</time>
      </trkpt>
      <trkpt lat="43.0553" lon="1.95093">
        <ele>350.785004</ele>
        <time>2018-10-03T07:33:30Z</time>
      </trkpt>
      <trkpt lat="43.05575" lon="1.95157">
        <ele>355.559235</ele>
        <time>2018-10-03T07:34:12Z</time>
      </trkpt>
      <trkpt lat="43.056" lon="1.95195">
        <ele>359.776459</ele>
        <time>2018-10-03T07:34:31Z</time>
      </trkpt>
      <trkpt lat="43.05618" lon="1.95211">
        <ele>362.705597</ele>
        <time>2018-10-03T07:34:39Z</time>
      </trkpt>
      <trkpt lat="43.05782" lon="1.9549">
        <ele>375.292511</ele>
        <time>2018-10-03T07:34:56Z</time>
      </trkpt>
      <trkpt lat="43.05819" lon="1.95501">
        <ele>370.684998</ele>
        <time>2018-10-03T07:35:01Z</time>
      </trkpt>
      <trkpt lat="43.05848" lon="1.95533">
        <ele>365.841248</ele>
        <time>2018-10-03T07:35:06Z</time>
      </trkpt>
      <trkpt lat="43.05871" lon="1.95567">
        <ele>362.41861</ele>
        <time>2018-10-03T07:35:11Z</time>
      </trkpt>
      <trkpt lat="43.05882" lon="1.95592">
        <ele>360.266174</ele>
        <time>2018-10-03T07:35:16Z</time>
      </trkpt>
      <trkpt lat="43.05894" lon="1.95611">
        <ele>357.990631</ele>
        <time>2018-10-03T07:35:19Z</time>
      </trkpt>
      <trkpt lat="43.05908" lon="1.95626">
        <ele>356.691345</ele>
        <time>2018-10-03T07:35:22Z</time>
      </trkpt>
      <trkpt lat="43.05958" lon="1.95651">
        <ele>353.672394</ele>
        <time>2018-10-03T07:35:29Z</time>
      </trkpt>
      <trkpt lat="43.05989" lon="1.9567">
        <ele>352.630676</ele>
        <time>2018-10-03T07:35:35Z</time>
      </trkpt>
      <trkpt lat="43.05992" lon="1.95674">
        <ele>353.152832</ele>
        <time>2018-10-03T07:35:37Z</time>
      </trkpt>
      <trkpt lat="43.05997" lon="1.95676">
        <ele>353.716919</ele>
        <time>2018-10-03T07:35:43Z</time>
      </trkpt>
      <trkpt lat="43.06014" lon="1.95695">
        <ele>357.003937</ele>
        <time>2018-10-03T07:37:24Z</time>
      </trkpt>
      <trkpt lat="43.06022" lon="1.95709">
        <ele>358.770081</ele>
        <time>2018-10-03T07:37:33Z</time>
      </trkpt>
      <trkpt lat="43.06033" lon="1.95733">
        <ele>361.522339</ele>
        <time>2018-10-03T07:37:48Z</time>
      </trkpt>
      <trkpt lat="43.06046" lon="1.95754">
        <ele>363.762482</ele>
        <time>2018-10-03T07:37:59Z</time>
      </trkpt>
      <trkpt lat="43.06078" lon="1.95819">
        <ele>369.84845</ele>
        <time>2018-10-03T07:38:26Z</time>
      </trkpt>
      <trkpt lat="43.06088" lon="1.95831">
        <ele>370.713745</ele>
        <time>2018-10-03T07:38:33Z</time>
      </trkpt>
      <trkpt lat="43.06102" lon="1.95845">
        <ele>371.696259</ele>
        <time>2018-10-03T07:38:44Z</time>
      </trkpt>
      <trkpt lat="43.06154" lon="1.9588">
        <ele>375.067932</ele>
        <time>2018-10-03T07:39:13Z</time>
      </trkpt>
      <trkpt lat="43.06181" lon="1.95905">
        <ele>377.397217</ele>
        <time>2018-10-03T07:39:23Z</time>
      </trkpt>
      <trkpt lat="43.06191" lon="1.95921">
        <ele>378.802368</ele>
        <time>2018-10-03T07:39:30Z</time>
      </trkpt>
      <trkpt lat="43.06201" lon="1.9594">
        <ele>381.23642</ele>
        <time>2018-10-03T07:39:37Z</time>
      </trkpt>
      <trkpt lat="43.06206" lon="1.95952">
        <ele>382.624725</ele>
        <time>2018-10-03T07:39:47Z</time>
      </trkpt>
      <trkpt lat="43.06213" lon="1.95983">
        <ele>385.756256</ele>
        <time>2018-10-03T07:40:06Z</time>
      </trkpt>
      <trkpt lat="43.06221" lon="1.96008">
        <ele>388.982635</ele>
        <time>2018-10-03T07:40:19Z</time>
      </trkpt>
      <trkpt lat="43.06222" lon="1.96022">
        <ele>390.302521</ele>
        <time>2018-10-03T07:40:26Z</time>
      </trkpt>
      <trkpt lat="43.06215" lon="1.96045">
        <ele>391.154846</ele>
        <time>2018-10-03T07:40:40Z</time>
      </trkpt>
      <trkpt lat="43.06208" lon="1.96063">
        <ele>391.930756</ele>
        <time>2018-10-03T07:40:54Z</time>
      </trkpt>
      <trkpt lat="43.06205" lon="1.96131">
        <ele>398.013519</ele>
        <time>2018-10-03T07:41:21Z</time>
      </trkpt>
      <trkpt lat="43.06204" lon="1.96144">
        <ele>399.092468</ele>
        <time>2018-10-03T07:41:28Z</time>
      </trkpt>
      <trkpt lat="43.06196" lon="1.96161">
        <ele>399.426697</ele>
        <time>2018-10-03T07:41:39Z</time>
      </trkpt>
      <trkpt lat="43.06184" lon="1.96192">
        <ele>399.752502</ele>
        <time>2018-10-03T07:41:55Z</time>
      </trkpt>
      <trkpt lat="43.06178" lon="1.96226">
        <ele>400.972504</ele>
        <time>2018-10-03T07:42:06Z</time>
      </trkpt>
      <trkpt lat="43.06175" lon="1.96265">
        <ele>404.204193</ele>
        <time>2018-10-03T07:42:18Z</time>
      </trkpt>
      <trkpt lat="43.06174" lon="1.96293">
        <ele>406.956543</ele>
        <time>2018-10-03T07:42:26Z</time>
      </trkpt>
      <trkpt lat="43.06182" lon="1.96323">
        <ele>411.983459</ele>
        <time>2018-10-03T07:42:54Z</time>
      </trkpt>
      <trkpt lat="43.06185" lon="1.96349">
        <ele>415.616394</ele>
        <time>2018-10-03T07:43:06Z</time>
      </trkpt>
      <trkpt lat="43.06184" lon="1.96361">
        <ele>416.422485</ele>
        <time>2018-10-03T07:43:17Z</time>
      </trkpt>
      <trkpt lat="43.06184" lon="1.96385">
        <ele>418.248749</ele>
        <time>2018-10-03T07:43:34Z</time>
      </trkpt>
      <trkpt lat="43.06186" lon="1.96402">
        <ele>420.105011</ele>
        <time>2018-10-03T07:43:44Z</time>
      </trkpt>
      <trkpt lat="43.06188" lon="1.96408">
        <ele>420.904999</ele>
        <time>2018-10-03T07:43:48Z</time>
      </trkpt>
      <trkpt lat="43.06194" lon="1.96419">
        <ele>423.205597</ele>
        <time>2018-10-03T07:44:00Z</time>
      </trkpt>
      <trkpt lat="43.06203" lon="1.96442">
        <ele>427.005066</ele>
        <time>2018-10-03T07:44:13Z</time>
      </trkpt>
      <trkpt lat="43.06203" lon="1.96459">
        <ele>428.694</ele>
        <time>2018-10-03T07:44:27Z</time>
      </trkpt>
      <trkpt lat="43.06209" lon="1.96496">
        <ele>433.225006</ele>
        <time>2018-10-03T07:44:58Z</time>
      </trkpt>
      <trkpt lat="43.06217" lon="1.96521">
        <ele>437.035004</ele>
        <time>2018-10-03T07:45:17Z</time>
      </trkpt>
      <trkpt lat="43.06226" lon="1.96575">
        <ele>443.737488</ele>
        <time>2018-10-03T07:45:57Z</time>
      </trkpt>
      <trkpt lat="43.06229" lon="1.96604">
        <ele>446.799377</ele>
        <time>2018-10-03T07:46:14Z</time>
      </trkpt>
      <trkpt lat="43.06235" lon="1.96625">
        <ele>449.676727</ele>
        <time>2018-10-03T07:46:27Z</time>
      </trkpt>
      <trkpt lat="43.06239" lon="1.96649">
        <ele>452.726044</ele>
        <time>2018-10-03T07:46:42Z</time>
      </trkpt>
      <trkpt lat="43.06243" lon="1.96661">
        <ele>454.608978</ele>
        <time>2018-10-03T07:46:56Z</time>
      </trkpt>
      <trkpt lat="43.06247" lon="1.96699">
        <ele>456.787933</ele>
        <time>2018-10-03T07:47:49Z</time>
      </trkpt>
      <trkpt lat="43.06249" lon="1.96711">
        <ele>457.746002</ele>
        <time>2018-10-03T07:47:58Z</time>
      </trkpt>
      <trkpt lat="43.06258" lon="1.96726">
        <ele>461.106262</ele>
        <time>2018-10-03T07:48:10Z</time>
      </trkpt>
      <trkpt lat="43.06271" lon="1.96764">
        <ele>465.842499</ele>
        <time>2018-10-03T07:48:27Z</time>
      </trkpt>
      <trkpt lat="43.06275" lon="1.96782">
        <ele>467.728363</ele>
        <time>2018-10-03T07:48:37Z</time>
      </trkpt>
      <trkpt lat="43.0628" lon="1.96821">
        <ele>472.252747</ele>
        <time>2018-10-03T07:49:04Z</time>
      </trkpt>
      <trkpt lat="43.06283" lon="1.96839">
        <ele>474.254639</ele>
        <time>2018-10-03T07:49:16Z</time>
      </trkpt>
      <trkpt lat="43.06283" lon="1.96865">
        <ele>475.909302</ele>
        <time>2018-10-03T07:49:31Z</time>
      </trkpt>
      <trkpt lat="43.06284" lon="1.96885">
        <ele>477.366516</ele>
        <time>2018-10-03T07:49:42Z</time>
      </trkpt>
      <trkpt lat="43.06282" lon="1.96901">
        <ele>478.404907</ele>
        <time>2018-10-03T07:49:53Z</time>
      </trkpt>
      <trkpt lat="43.06275" lon="1.96932">
        <ele>478.717102</ele>
        <time>2018-10-03T07:50:11Z</time>
      </trkpt>
      <trkpt lat="43.06255" lon="1.96997">
        <ele>481.546631</ele>
        <time>2018-10-03T07:50:43Z</time>
      </trkpt>
      <trkpt lat="43.06243" lon="1.97019">
        <ele>482.578186</ele>
        <time>2018-10-03T07:50:58Z</time>
      </trkpt>
      <trkpt lat="43.06232" lon="1.97046">
        <ele>485.644226</ele>
        <time>2018-10-03T07:51:11Z</time>
      </trkpt>
      <trkpt lat="43.06229" lon="1.97061">
        <ele>487.41333</ele>
        <time>2018-10-03T07:51:17Z</time>
      </trkpt>
      <trkpt lat="43.06218" lon="1.97077">
        <ele>489.853394</ele>
        <time>2018-10-03T07:51:26Z</time>
      </trkpt>
      <trkpt lat="43.06211" lon="1.971">
        <ele>491.499695</ele>
        <time>2018-10-03T07:51:38Z</time>
      </trkpt>
      <trkpt lat="43.06211" lon="1.97119">
        <ele>493.555054</ele>
        <time>2018-10-03T07:51:46Z</time>
      </trkpt>
      <trkpt lat="43.06224" lon="1.97138">
        <ele>495.922302</ele>
        <time>2018-10-03T07:51:59Z</time>
      </trkpt>
      <trkpt lat="43.06245" lon="1.97159">
        <ele>497.195618</ele>
        <time>2018-10-03T07:52:12Z</time>
      </trkpt>
      <trkpt lat="43.0628" lon="1.97186">
        <ele>498.513763</ele>
        <time>2018-10-03T07:52:26Z</time>
      </trkpt>
      <trkpt lat="43.06304" lon="1.97195">
        <ele>498.008759</ele>
        <time>2018-10-03T07:52:32Z</time>
      </trkpt>
      <trkpt lat="43.06332" lon="1.97197">
        <ele>498.390015</ele>
        <time>2018-10-03T07:52:40Z</time>
      </trkpt>
      <trkpt lat="43.06348" lon="1.97207">
        <ele>499.884979</ele>
        <time>2018-10-03T07:52:51Z</time>
      </trkpt>
      <trkpt lat="43.06359" lon="1.97217">
        <ele>500.384796</ele>
        <time>2018-10-03T07:52:59Z</time>
      </trkpt>
      <trkpt lat="43.06373" lon="1.97226">
        <ele>500.180023</ele>
        <time>2018-10-03T07:53:12Z</time>
      </trkpt>
      <trkpt lat="43.06409" lon="1.97265">
        <ele>501.309509</ele>
        <time>2018-10-03T07:53:29Z</time>
      </trkpt>
      <trkpt lat="43.06424" lon="1.97288">
        <ele>499.452362</ele>
        <time>2018-10-03T07:53:38Z</time>
      </trkpt>
      <trkpt lat="43.06434" lon="1.97299">
        <ele>498.265686</ele>
        <time>2018-10-03T07:53:47Z</time>
      </trkpt>
      <trkpt lat="43.06438" lon="1.97309">
        <ele>497.468536</ele>
        <time>2018-10-03T07:53:53Z</time>
      </trkpt>
      <trkpt lat="43.06444" lon="1.97309">
        <ele>497.311554</ele>
        <time>2018-10-03T07:54:06Z</time>
      </trkpt>
      <trkpt lat="43.06464" lon="1.97314">
        <ele>498.159576</ele>
        <time>2018-10-03T07:54:25Z</time>
      </trkpt>
      <trkpt lat="43.06443" lon="1.97309">
        <ele>497.33313</ele>
        <time>2018-10-03T07:54:51Z</time>
      </trkpt>
      <trkpt lat="43.06461" lon="1.9734">
        <ele>493.067505</ele>
        <time>2018-10-03T07:55:02Z</time>
      </trkpt>
      <trkpt lat="43.06482" lon="1.97361">
        <ele>487.28125</ele>
        <time>2018-10-03T07:55:11Z</time>
      </trkpt>
      <trkpt lat="43.06501" lon="1.97376">
        <ele>483.496552</ele>
        <time>2018-10-03T07:55:19Z</time>
      </trkpt>
      <trkpt lat="43.06511" lon="1.97385">
        <ele>481.107239</ele>
        <time>2018-10-03T07:55:24Z</time>
      </trkpt>
      <trkpt lat="43.06521" lon="1.97392">
        <ele>479.600311</ele>
        <time>2018-10-03T07:55:29Z</time>
      </trkpt>
      <trkpt lat="43.06584" lon="1.97448">
        <ele>469.088867</ele>
        <time>2018-10-03T07:55:46Z</time>
      </trkpt>
      <trkpt lat="43.06597" lon="1.97464">
        <ele>466.164886</ele>
        <time>2018-10-03T07:55:49Z</time>
      </trkpt>
      <trkpt lat="43.06611" lon="1.97488">
        <ele>460.696136</ele>
        <time>2018-10-03T07:55:57Z</time>
      </trkpt>
      <trkpt lat="43.06637" lon="1.97505">
        <ele>457.187561</ele>
        <time>2018-10-03T07:56:09Z</time>
      </trkpt>
      <trkpt lat="43.06661" lon="1.97512">
        <ele>455.480011</ele>
        <time>2018-10-03T07:56:16Z</time>
      </trkpt>
      <trkpt lat="43.0671" lon="1.97547">
        <ele>451.458191</ele>
        <time>2018-10-03T07:56:27Z</time>
      </trkpt>
      <trkpt lat="43.06737" lon="1.9762">
        <ele>435.674744</ele>
        <time>2018-10-03T07:56:35Z</time>
      </trkpt>
      <trkpt lat="43.06751" lon="1.97644">
        <ele>432.122925</ele>
        <time>2018-10-03T07:56:40Z</time>
      </trkpt>
      <trkpt lat="43.06795" lon="1.97667">
        <ele>432.505798</ele>
        <time>2018-10-03T07:56:48Z</time>
      </trkpt>
      <trkpt lat="43.06819" lon="1.97682">
        <ele>429.272949</ele>
        <time>2018-10-03T07:56:53Z</time>
      </trkpt>
      <trkpt lat="43.06849" lon="1.97713">
        <ele>420.442505</ele>
        <time>2018-10-03T07:57:04Z</time>
      </trkpt>
      <trkpt lat="43.06867" lon="1.97718">
        <ele>417.390533</ele>
        <time>2018-10-03T07:57:08Z</time>
      </trkpt>
      <trkpt lat="43.06898" lon="1.97722">
        <ele>413.666901</ele>
        <time>2018-10-03T07:57:13Z</time>
      </trkpt>
      <trkpt lat="43.06921" lon="1.97707">
        <ele>413.926331</ele>
        <time>2018-10-03T07:57:18Z</time>
      </trkpt>
      <trkpt lat="43.06955" lon="1.97676">
        <ele>418.102692</ele>
        <time>2018-10-03T07:57:24Z</time>
      </trkpt>
      <trkpt lat="43.06966" lon="1.97669">
        <ele>419.814758</ele>
        <time>2018-10-03T07:57:29Z</time>
      </trkpt>
      <trkpt lat="43.06984" lon="1.97668">
        <ele>419.997986</ele>
        <time>2018-10-03T07:57:42Z</time>
      </trkpt>
      <trkpt lat="43.06998" lon="1.97676">
        <ele>420.582489</ele>
        <time>2018-10-03T07:57:53Z</time>
      </trkpt>
      <trkpt lat="43.07008" lon="1.97678">
        <ele>421.872498</ele>
        <time>2018-10-03T07:58:04Z</time>
      </trkpt>
      <trkpt lat="43.07036" lon="1.97697">
        <ele>421.888</ele>
        <time>2018-10-03T07:58:17Z</time>
      </trkpt>
      <trkpt lat="43.07054" lon="1.9772">
        <ele>419.34436</ele>
        <time>2018-10-03T07:58:24Z</time>
      </trkpt>
      <trkpt lat="43.07067" lon="1.97754">
        <ele>413.179321</ele>
        <time>2018-10-03T07:58:30Z</time>
      </trkpt>
      <trkpt lat="43.0709" lon="1.97772">
        <ele>408.697388</ele>
        <time>2018-10-03T07:58:36Z</time>
      </trkpt>
      <trkpt lat="43.07138" lon="1.97782">
        <ele>403.456116</ele>
        <time>2018-10-03T07:58:42Z</time>
      </trkpt>
      <trkpt lat="43.07158" lon="1.97768">
        <ele>403.284698</ele>
        <time>2018-10-03T07:58:45Z</time>
      </trkpt>
      <trkpt lat="43.072" lon="1.97728">
        <ele>402.821808</ele>
        <time>2018-10-03T07:58:52Z</time>
      </trkpt>
      <trkpt lat="43.07239" lon="1.97673">
        <ele>403.017914</ele>
        <time>2018-10-03T07:59:00Z</time>
      </trkpt>
      <trkpt lat="43.07252" lon="1.97665">
        <ele>401.848328</ele>
        <time>2018-10-03T07:59:03Z</time>
      </trkpt>
      <trkpt lat="43.07277" lon="1.97635">
        <ele>401.11261</ele>
        <time>2018-10-03T07:59:10Z</time>
      </trkpt>
      <trkpt lat="43.0731" lon="1.97589">
        <ele>398.372498</ele>
        <time>2018-10-03T07:59:16Z</time>
      </trkpt>
      <trkpt lat="43.07333" lon="1.97553">
        <ele>394.320007</ele>
        <time>2018-10-03T07:59:24Z</time>
      </trkpt>
      <trkpt lat="43.07343" lon="1.97519">
        <ele>392.842499</ele>
        <time>2018-10-03T07:59:31Z</time>
      </trkpt>
      <trkpt lat="43.07356" lon="1.97507">
        <ele>389.921265</ele>
        <time>2018-10-03T07:59:36Z</time>
      </trkpt>
      <trkpt lat="43.07378" lon="1.97529">
        <ele>383.782501</ele>
        <time>2018-10-03T07:59:43Z</time>
      </trkpt>
      <trkpt lat="43.07404" lon="1.97547">
        <ele>378.345642</ele>
        <time>2018-10-03T07:59:48Z</time>
      </trkpt>
      <trkpt lat="43.0742" lon="1.97542">
        <ele>376.033417</ele>
        <time>2018-10-03T07:59:55Z</time>
      </trkpt>
      <trkpt lat="43.07468" lon="1.97585">
        <ele>370.105377</ele>
        <time>2018-10-03T08:00:03Z</time>
      </trkpt>
      <trkpt lat="43.07489" lon="1.97598">
        <ele>367.422241</ele>
        <time>2018-10-03T08:00:09Z</time>
      </trkpt>
      <trkpt lat="43.07514" lon="1.97601">
        <ele>363.815613</ele>
        <time>2018-10-03T08:00:15Z</time>
      </trkpt>
      <trkpt lat="43.07525" lon="1.97625">
        <ele>361.901245</ele>
        <time>2018-10-03T08:00:21Z</time>
      </trkpt>
      <trkpt lat="43.07531" lon="1.97656">
        <ele>360.077484</ele>
        <time>2018-10-03T08:00:26Z</time>
      </trkpt>
      <trkpt lat="43.07544" lon="1.97695">
        <ele>357.192505</ele>
        <time>2018-10-03T08:00:33Z</time>
      </trkpt>
      <trkpt lat="43.07623" lon="1.97708">
        <ele>349.042511</ele>
        <time>2018-10-03T08:00:46Z</time>
      </trkpt>
      <trkpt lat="43.07641" lon="1.97712">
        <ele>347.803741</ele>
        <time>2018-10-03T08:00:50Z</time>
      </trkpt>
      <trkpt lat="43.07649" lon="1.97713">
        <ele>347.216248</ele>
        <time>2018-10-03T08:01:00Z</time>
      </trkpt>
      <trkpt lat="43.07669" lon="1.97711">
        <ele>346.163757</ele>
        <time>2018-10-03T08:01:10Z</time>
      </trkpt>
      <trkpt lat="43.07803" lon="1.97748">
        <ele>339.563019</ele>
        <time>2018-10-03T08:01:24Z</time>
      </trkpt>
      <trkpt lat="43.07837" lon="1.97737">
        <ele>338.265991</ele>
        <time>2018-10-03T08:01:28Z</time>
      </trkpt>
      <trkpt lat="43.07884" lon="1.97732">
        <ele>337.263489</ele>
        <time>2018-10-03T08:01:34Z</time>
      </trkpt>
      <trkpt lat="43.07924" lon="1.97733">
        <ele>337.025513</ele>
        <time>2018-10-03T08:01:39Z</time>
      </trkpt>
      <trkpt lat="43.07946" lon="1.97737">
        <ele>336.264404</ele>
        <time>2018-10-03T08:01:42Z</time>
      </trkpt>
      <trkpt lat="43.07968" lon="1.97739">
        <ele>335.355896</ele>
        <time>2018-10-03T08:01:45Z</time>
      </trkpt>
      <trkpt lat="43.08049" lon="1.97742">
        <ele>332.673004</ele>
        <time>2018-10-03T08:02:09Z</time>
      </trkpt>
      <trkpt lat="43.08096" lon="1.97745">
        <ele>331.270691</ele>
        <time>2018-10-03T08:02:17Z</time>
      </trkpt>
      <trkpt lat="43.0812" lon="1.9775">
        <ele>331.033875</ele>
        <time>2018-10-03T08:02:24Z</time>
      </trkpt>
      <trkpt lat="43.08133" lon="1.97756">
        <ele>331.062988</ele>
        <time>2018-10-03T08:02:30Z</time>
      </trkpt>
      <trkpt lat="43.08149" lon="1.97757">
        <ele>331.014008</ele>
        <time>2018-10-03T08:02:43Z</time>
      </trkpt>
      <trkpt lat="43.0817" lon="1.97765">
        <ele>330.730499</ele>
        <time>2018-10-03T08:03:48Z</time>
      </trkpt>
      <trkpt lat="43.08191" lon="1.97775">
        <ele>330.547913</ele>
        <time>2018-10-03T08:03:59Z</time>
      </trkpt>
      <trkpt lat="43.0822" lon="1.9777">
        <ele>330.390015</ele>
        <time>2018-10-03T08:04:07Z</time>
      </trkpt>
      <trkpt lat="43.08239" lon="1.97776">
        <ele>330.477509</ele>
        <time>2018-10-03T08:04:15Z</time>
      </trkpt>
      <trkpt lat="43.08251" lon="1.97798">
        <ele>330.992889</ele>
        <time>2018-10-03T08:04:27Z</time>
      </trkpt>
      <trkpt lat="43.08251" lon="1.97825">
        <ele>331.472504</ele>
        <time>2018-10-03T08:04:34Z</time>
      </trkpt>
      <trkpt lat="43.08244" lon="1.9786">
        <ele>331.886261</ele>
        <time>2018-10-03T08:04:42Z</time>
      </trkpt>
      <trkpt lat="43.0824" lon="1.97884">
        <ele>332</ele>
        <time>2018-10-03T08:04:46Z</time>
      </trkpt>
      <trkpt lat="43.08237" lon="1.979">
        <ele>332</ele>
        <time>2018-10-03T08:04:49Z</time>
      </trkpt>
      <trkpt lat="43.08222" lon="1.97948">
        <ele>332.154205</ele>
        <time>2018-10-03T08:04:59Z</time>
      </trkpt>
      <trkpt lat="43.08207" lon="1.98006">
        <ele>332.425018</ele>
        <time>2018-10-03T08:05:10Z</time>
      </trkpt>
      <trkpt lat="43.0819" lon="1.98087">
        <ele>333</ele>
        <time>2018-10-03T08:05:22Z</time>
      </trkpt>
      <trkpt lat="43.08182" lon="1.98112">
        <ele>333</ele>
        <time>2018-10-03T08:05:28Z</time>
      </trkpt>
      <trkpt lat="43.08171" lon="1.9817">
        <ele>333.90625</ele>
        <time>2018-10-03T08:05:39Z</time>
      </trkpt>
      <trkpt lat="43.08142" lon="1.98297">
        <ele>335.267731</ele>
        <time>2018-10-03T08:05:55Z</time>
      </trkpt>
      <trkpt lat="43.08141" lon="1.98334">
        <ele>335.708679</ele>
        <time>2018-10-03T08:06:01Z</time>
      </trkpt>
      <trkpt lat="43.08139" lon="1.98356">
        <ele>335.958557</ele>
        <time>2018-10-03T08:06:06Z</time>
      </trkpt>
      <trkpt lat="43.0812" lon="1.98373">
        <ele>336.216248</ele>
        <time>2018-10-03T08:06:19Z</time>
      </trkpt>
      <trkpt lat="43.0812" lon="1.98405">
        <ele>336.736237</ele>
        <time>2018-10-03T08:06:25Z</time>
      </trkpt>
      <trkpt lat="43.0811" lon="1.98443">
        <ele>337.00177</ele>
        <time>2018-10-03T08:06:31Z</time>
      </trkpt>
      <trkpt lat="43.08098" lon="1.98478">
        <ele>337.24942</ele>
        <time>2018-10-03T08:06:36Z</time>
      </trkpt>
      <trkpt lat="43.08088" lon="1.98512">
        <ele>337.730988</ele>
        <time>2018-10-03T08:06:41Z</time>
      </trkpt>
      <trkpt lat="43.08084" lon="1.98546">
        <ele>338.01828</ele>
        <time>2018-10-03T08:06:46Z</time>
      </trkpt>
      <trkpt lat="43.08077" lon="1.98583">
        <ele>338.470276</ele>
        <time>2018-10-03T08:06:52Z</time>
      </trkpt>
      <trkpt lat="43.08067" lon="1.98616">
        <ele>338.967499</ele>
        <time>2018-10-03T08:06:58Z</time>
      </trkpt>
      <trkpt lat="43.08061" lon="1.98634">
        <ele>339</ele>
        <time>2018-10-03T08:07:01Z</time>
      </trkpt>
      <trkpt lat="43.08047" lon="1.98657">
        <ele>339</ele>
        <time>2018-10-03T08:07:11Z</time>
      </trkpt>
      <trkpt lat="43.08031" lon="1.98691">
        <ele>339</ele>
        <time>2018-10-03T08:07:19Z</time>
      </trkpt>
      <trkpt lat="43.08013" lon="1.98755">
        <ele>339.083588</ele>
        <time>2018-10-03T08:07:28Z</time>
      </trkpt>
      <trkpt lat="43.07999" lon="1.98777">
        <ele>339.406006</ele>
        <time>2018-10-03T08:07:34Z</time>
      </trkpt>
      <trkpt lat="43.07984" lon="1.98804">
        <ele>340.324829</ele>
        <time>2018-10-03T08:07:40Z</time>
      </trkpt>
      <trkpt lat="43.07982" lon="1.98853">
        <ele>342.081757</ele>
        <time>2018-10-03T08:07:47Z</time>
      </trkpt>
      <trkpt lat="43.08008" lon="1.98863">
        <ele>342.761047</ele>
        <time>2018-10-03T08:07:54Z</time>
      </trkpt>
      <trkpt lat="43.08019" lon="1.98883">
        <ele>344.077362</ele>
        <time>2018-10-03T08:08:00Z</time>
      </trkpt>
      <trkpt lat="43.08026" lon="1.98904">
        <ele>345.394989</ele>
        <time>2018-10-03T08:08:06Z</time>
      </trkpt>
      <trkpt lat="43.08026" lon="1.98919">
        <ele>346.449524</ele>
        <time>2018-10-03T08:08:11Z</time>
      </trkpt>
      <trkpt lat="43.08017" lon="1.98936">
        <ele>347.75766</ele>
        <time>2018-10-03T08:08:18Z</time>
      </trkpt>
      <trkpt lat="43.07998" lon="1.98965">
        <ele>348.42392</ele>
        <time>2018-10-03T08:08:29Z</time>
      </trkpt>
      <trkpt lat="43.07992" lon="1.98978">
        <ele>348.690704</ele>
        <time>2018-10-03T08:08:32Z</time>
      </trkpt>
      <trkpt lat="43.07958" lon="1.99063">
        <ele>350.199188</ele>
        <time>2018-10-03T08:08:51Z</time>
      </trkpt>
      <trkpt lat="43.07942" lon="1.99093">
        <ele>349.852325</ele>
        <time>2018-10-03T08:09:00Z</time>
      </trkpt>
      <trkpt lat="43.07903" lon="1.99185">
        <ele>351.277893</ele>
        <time>2018-10-03T08:09:16Z</time>
      </trkpt>
      <trkpt lat="43.07887" lon="1.9921">
        <ele>349.280945</ele>
        <time>2018-10-03T08:09:24Z</time>
      </trkpt>
      <trkpt lat="43.07879" lon="1.9923">
        <ele>349.6875</ele>
        <time>2018-10-03T08:09:29Z</time>
      </trkpt>
      <trkpt lat="43.07868" lon="1.99261">
        <ele>349.948914</ele>
        <time>2018-10-03T08:09:36Z</time>
      </trkpt>
      <trkpt lat="43.0786" lon="1.9929">
        <ele>349.600616</ele>
        <time>2018-10-03T08:09:43Z</time>
      </trkpt>
      <trkpt lat="43.07823" lon="1.99425">
        <ele>349.554291</ele>
        <time>2018-10-03T08:10:05Z</time>
      </trkpt>
      <trkpt lat="43.07815" lon="1.9946">
        <ele>348.832397</ele>
        <time>2018-10-03T08:10:10Z</time>
      </trkpt>
      <trkpt lat="43.07804" lon="1.99502">
        <ele>348.117096</ele>
        <time>2018-10-03T08:10:18Z</time>
      </trkpt>
      <trkpt lat="43.07796" lon="1.99528">
        <ele>347.84549</ele>
        <time>2018-10-03T08:10:25Z</time>
      </trkpt>
      <trkpt lat="43.07788" lon="1.99556">
        <ele>349.179169</ele>
        <time>2018-10-03T08:10:31Z</time>
      </trkpt>
      <trkpt lat="43.0778" lon="1.99596">
        <ele>351.389069</ele>
        <time>2018-10-03T08:10:38Z</time>
      </trkpt>
      <trkpt lat="43.07777" lon="1.99621">
        <ele>353.748322</ele>
        <time>2018-10-03T08:10:44Z</time>
      </trkpt>
      <trkpt lat="43.07761" lon="1.99672">
        <ele>355.595062</ele>
        <time>2018-10-03T08:11:01Z</time>
      </trkpt>
      <trkpt lat="43.07754" lon="1.99701">
        <ele>357.654999</ele>
        <time>2018-10-03T08:11:24Z</time>
      </trkpt>
      <trkpt lat="43.07736" lon="1.99716">
        <ele>355.679993</ele>
        <time>2018-10-03T08:18:13Z</time>
      </trkpt>
      <trkpt lat="43.07659" lon="1.99752">
        <ele>348.098633</ele>
        <time>2018-10-03T08:18:24Z</time>
      </trkpt>
      <trkpt lat="43.07631" lon="1.99762">
        <ele>348.63623</ele>
        <time>2018-10-03T08:18:29Z</time>
      </trkpt>
      <trkpt lat="43.07621" lon="1.99763">
        <ele>348.833557</ele>
        <time>2018-10-03T08:18:36Z</time>
      </trkpt>
      <trkpt lat="43.07615" lon="1.99738">
        <ele>348.443756</ele>
        <time>2018-10-03T08:18:45Z</time>
      </trkpt>
      <trkpt lat="43.07619" lon="1.9977">
        <ele>348.963745</ele>
        <time>2018-10-03T08:19:05Z</time>
      </trkpt>
      <trkpt lat="43.07612" lon="1.99799">
        <ele>350.043549</ele>
        <time>2018-10-03T08:19:14Z</time>
      </trkpt>
      <trkpt lat="43.07602" lon="1.99808">
        <ele>350.620514</ele>
        <time>2018-10-03T08:19:21Z</time>
      </trkpt>
      <trkpt lat="43.07586" lon="1.99828">
        <ele>352.177094</ele>
        <time>2018-10-03T08:19:30Z</time>
      </trkpt>
      <trkpt lat="43.07566" lon="1.99849">
        <ele>355.155914</ele>
        <time>2018-10-03T08:19:39Z</time>
      </trkpt>
      <trkpt lat="43.07536" lon="1.99886">
        <ele>358.322174</ele>
        <time>2018-10-03T08:19:52Z</time>
      </trkpt>
      <trkpt lat="43.07525" lon="1.99886">
        <ele>357.461395</ele>
        <time>2018-10-03T08:19:59Z</time>
      </trkpt>
      <trkpt lat="43.075" lon="1.99906">
        <ele>357.956299</ele>
        <time>2018-10-03T08:20:09Z</time>
      </trkpt>
      <trkpt lat="43.07465" lon="1.99922">
        <ele>357.329346</ele>
        <time>2018-10-03T08:20:17Z</time>
      </trkpt>
      <trkpt lat="43.07427" lon="1.99938">
        <ele>356.762512</ele>
        <time>2018-10-03T08:20:23Z</time>
      </trkpt>
      <trkpt lat="43.07367" lon="1.9997">
        <ele>357.623199</ele>
        <time>2018-10-03T08:20:32Z</time>
      </trkpt>
      <trkpt lat="43.07339" lon="1.99987">
        <ele>357.407135</ele>
        <time>2018-10-03T08:20:37Z</time>
      </trkpt>
      <trkpt lat="43.07317" lon="2.00009">
        <ele>357.42807</ele>
        <time>2018-10-03T08:20:42Z</time>
      </trkpt>
      <trkpt lat="43.07302" lon="2.00024">
        <ele>357.515503</ele>
        <time>2018-10-03T08:20:45Z</time>
      </trkpt>
      <trkpt lat="43.07278" lon="2.00039">
        <ele>358.006348</ele>
        <time>2018-10-03T08:20:50Z</time>
      </trkpt>
      <trkpt lat="43.07242" lon="2.00057">
        <ele>357.004852</ele>
        <time>2018-10-03T08:20:56Z</time>
      </trkpt>
      <trkpt lat="43.0721" lon="2.00051">
        <ele>355.918732</ele>
        <time>2018-10-03T08:21:01Z</time>
      </trkpt>
      <trkpt lat="43.0716" lon="2.00085">
        <ele>356.358398</ele>
        <time>2018-10-03T08:21:11Z</time>
      </trkpt>
      <trkpt lat="43.07118" lon="2.001">
        <ele>357.528107</ele>
        <time>2018-10-03T08:21:29Z</time>
      </trkpt>
      <trkpt lat="43.07092" lon="2.00111">
        <ele>357.941986</ele>
        <time>2018-10-03T08:21:39Z</time>
      </trkpt>
      <trkpt lat="43.07072" lon="2.00123">
        <ele>358.08078</ele>
        <time>2018-10-03T08:21:44Z</time>
      </trkpt>
      <trkpt lat="43.07051" lon="2.00139">
        <ele>357.671722</ele>
        <time>2018-10-03T08:21:49Z</time>
      </trkpt>
      <trkpt lat="43.0703" lon="2.00175">
        <ele>358.544647</ele>
        <time>2018-10-03T08:21:55Z</time>
      </trkpt>
      <trkpt lat="43.07019" lon="2.0021">
        <ele>359.359985</ele>
        <time>2018-10-03T08:22:01Z</time>
      </trkpt>
      <trkpt lat="43.07009" lon="2.00227">
        <ele>358.410004</ele>
        <time>2018-10-03T08:22:07Z</time>
      </trkpt>
      <trkpt lat="43.06964" lon="2.00286">
        <ele>355.365204</ele>
        <time>2018-10-03T08:22:13Z</time>
      </trkpt>
      <trkpt lat="43.06942" lon="2.00331">
        <ele>355.198425</ele>
        <time>2018-10-03T08:22:18Z</time>
      </trkpt>
      <trkpt lat="43.06941" lon="2.0035">
        <ele>355.578552</ele>
        <time>2018-10-03T08:22:23Z</time>
      </trkpt>
      <trkpt lat="43.06953" lon="2.0037">
        <ele>355.406921</ele>
        <time>2018-10-03T08:22:33Z</time>
      </trkpt>
      <trkpt lat="43.06954" lon="2.00403">
        <ele>356.280548</ele>
        <time>2018-10-03T08:22:43Z</time>
      </trkpt>
      <trkpt lat="43.06948" lon="2.0048">
        <ele>361.946075</ele>
        <time>2018-10-03T08:23:08Z</time>
      </trkpt>
      <trkpt lat="43.06948" lon="2.005">
        <ele>363.246155</ele>
        <time>2018-10-03T08:23:15Z</time>
      </trkpt>
      <trkpt lat="43.06942" lon="2.00594">
        <ele>367.767334</ele>
        <time>2018-10-03T08:23:49Z</time>
      </trkpt>
      <trkpt lat="43.06932" lon="2.00623">
        <ele>371.097168</ele>
        <time>2018-10-03T08:24:00Z</time>
      </trkpt>
      <trkpt lat="43.06928" lon="2.00601">
        <ele>370.759552</ele>
        <time>2018-10-03T08:24:10Z</time>
      </trkpt>
      <trkpt lat="43.06931" lon="2.00573">
        <ele>368.794739</ele>
        <time>2018-10-03T08:24:20Z</time>
      </trkpt>
      <trkpt lat="43.06928" lon="2.00537">
        <ele>366.524139</ele>
        <time>2018-10-03T08:24:32Z</time>
      </trkpt>
      <trkpt lat="43.06912" lon="2.00533">
        <ele>367.23703</ele>
        <time>2018-10-03T08:24:40Z</time>
      </trkpt>
      <trkpt lat="43.06896" lon="2.00549">
        <ele>369.162506</ele>
        <time>2018-10-03T08:24:49Z</time>
      </trkpt>
      <trkpt lat="43.06886" lon="2.00571">
        <ele>371.510681</ele>
        <time>2018-10-03T08:24:59Z</time>
      </trkpt>
      <trkpt lat="43.06879" lon="2.00597">
        <ele>373.889984</ele>
        <time>2018-10-03T08:25:08Z</time>
      </trkpt>
      <trkpt lat="43.0687" lon="2.00647">
        <ele>378.79538</ele>
        <time>2018-10-03T08:25:26Z</time>
      </trkpt>
      <trkpt lat="43.06862" lon="2.00675">
        <ele>381.655334</ele>
        <time>2018-10-03T08:25:34Z</time>
      </trkpt>
      <trkpt lat="43.06856" lon="2.00692">
        <ele>382.872498</ele>
        <time>2018-10-03T08:25:41Z</time>
      </trkpt>
      <trkpt lat="43.06834" lon="2.00714">
        <ele>380.912628</ele>
        <time>2018-10-03T08:25:52Z</time>
      </trkpt>
      <trkpt lat="43.06795" lon="2.00796">
        <ele>380.471863</ele>
        <time>2018-10-03T08:26:06Z</time>
      </trkpt>
      <trkpt lat="43.06777" lon="2.00848">
        <ele>379.11319</ele>
        <time>2018-10-03T08:26:11Z</time>
      </trkpt>
      <trkpt lat="43.06764" lon="2.0095">
        <ele>383.29892</ele>
        <time>2018-10-03T08:26:23Z</time>
      </trkpt>
      <trkpt lat="43.06746" lon="2.01008">
        <ele>381.419495</ele>
        <time>2018-10-03T08:26:37Z</time>
      </trkpt>
      <trkpt lat="43.06734" lon="2.01058">
        <ele>380.13501</ele>
        <time>2018-10-03T08:26:43Z</time>
      </trkpt>
      <trkpt lat="43.06718" lon="2.01124">
        <ele>379.47345</ele>
        <time>2018-10-03T08:26:48Z</time>
      </trkpt>
      <trkpt lat="43.06704" lon="2.01176">
        <ele>379.104034</ele>
        <time>2018-10-03T08:26:55Z</time>
      </trkpt>
      <trkpt lat="43.06692" lon="2.01209">
        <ele>378.512329</ele>
        <time>2018-10-03T08:27:01Z</time>
      </trkpt>
      <trkpt lat="43.06677" lon="2.01239">
        <ele>377.157043</ele>
        <time>2018-10-03T08:27:07Z</time>
      </trkpt>
      <trkpt lat="43.06647" lon="2.01316">
        <ele>378.263733</ele>
        <time>2018-10-03T08:27:15Z</time>
      </trkpt>
      <trkpt lat="43.06622" lon="2.01361">
        <ele>376.094727</ele>
        <time>2018-10-03T08:27:21Z</time>
      </trkpt>
      <trkpt lat="43.06597" lon="2.014">
        <ele>371.528351</ele>
        <time>2018-10-03T08:27:26Z</time>
      </trkpt>
      <trkpt lat="43.06559" lon="2.01436">
        <ele>369.233368</ele>
        <time>2018-10-03T08:27:33Z</time>
      </trkpt>
      <trkpt lat="43.0655" lon="2.01466">
        <ele>369.903748</ele>
        <time>2018-10-03T08:27:38Z</time>
      </trkpt>
      <trkpt lat="43.06519" lon="2.01476">
        <ele>368.570435</ele>
        <time>2018-10-03T08:27:45Z</time>
      </trkpt>
      <trkpt lat="43.0647" lon="2.01443">
        <ele>367.045563</ele>
        <time>2018-10-03T08:27:56Z</time>
      </trkpt>
      <trkpt lat="43.06462" lon="2.01471">
        <ele>367.060883</ele>
        <time>2018-10-03T08:28:02Z</time>
      </trkpt>
      <trkpt lat="43.06458" lon="2.01507">
        <ele>366.811981</ele>
        <time>2018-10-03T08:28:10Z</time>
      </trkpt>
      <trkpt lat="43.06458" lon="2.01538">
        <ele>366.297852</ele>
        <time>2018-10-03T08:28:17Z</time>
      </trkpt>
      <trkpt lat="43.06457" lon="2.0157">
        <ele>366.251526</ele>
        <time>2018-10-03T08:28:23Z</time>
      </trkpt>
      <trkpt lat="43.06457" lon="2.01604">
        <ele>366.784393</ele>
        <time>2018-10-03T08:28:31Z</time>
      </trkpt>
      <trkpt lat="43.06455" lon="2.0163">
        <ele>367.572693</ele>
        <time>2018-10-03T08:28:37Z</time>
      </trkpt>
      <trkpt lat="43.06445" lon="2.01647">
        <ele>368.031067</ele>
        <time>2018-10-03T08:28:42Z</time>
      </trkpt>
      <trkpt lat="43.06424" lon="2.0167">
        <ele>367.599854</ele>
        <time>2018-10-03T08:28:49Z</time>
      </trkpt>
      <trkpt lat="43.06406" lon="2.01682">
        <ele>367.250916</ele>
        <time>2018-10-03T08:28:57Z</time>
      </trkpt>
      <trkpt lat="43.06394" lon="2.01707">
        <ele>367.959747</ele>
        <time>2018-10-03T08:29:06Z</time>
      </trkpt>
      <trkpt lat="43.0638" lon="2.01762">
        <ele>369.419128</ele>
        <time>2018-10-03T08:29:15Z</time>
      </trkpt>
      <trkpt lat="43.0636" lon="2.01791">
        <ele>369.344177</ele>
        <time>2018-10-03T08:29:23Z</time>
      </trkpt>
      <trkpt lat="43.06347" lon="2.01823">
        <ele>370.876801</ele>
        <time>2018-10-03T08:29:28Z</time>
      </trkpt>
      <trkpt lat="43.06323" lon="2.01877">
        <ele>371.977051</ele>
        <time>2018-10-03T08:29:39Z</time>
      </trkpt>
      <trkpt lat="43.06293" lon="2.01919">
        <ele>372.941772</ele>
        <time>2018-10-03T08:29:53Z</time>
      </trkpt>
      <trkpt lat="43.06273" lon="2.01956">
        <ele>374.767151</ele>
        <time>2018-10-03T08:30:04Z</time>
      </trkpt>
      <trkpt lat="43.06234" lon="2.02005">
        <ele>373.427002</ele>
        <time>2018-10-03T08:30:26Z</time>
      </trkpt>
      <trkpt lat="43.06163" lon="2.02107">
        <ele>374.838623</ele>
        <time>2018-10-03T08:30:35Z</time>
      </trkpt>
      <trkpt lat="43.06137" lon="2.02122">
        <ele>372.852509</ele>
        <time>2018-10-03T08:30:41Z</time>
      </trkpt>
      <trkpt lat="43.06123" lon="2.02114">
        <ele>371.712494</ele>
        <time>2018-10-03T08:30:46Z</time>
      </trkpt>
      <trkpt lat="43.06099" lon="2.02092">
        <ele>370.021454</ele>
        <time>2018-10-03T08:30:51Z</time>
      </trkpt>
      <trkpt lat="43.06095" lon="2.02079">
        <ele>370.061066</ele>
        <time>2018-10-03T08:30:59Z</time>
      </trkpt>
      <trkpt lat="43.06098" lon="2.02043">
        <ele>369.924988</ele>
        <time>2018-10-03T08:31:07Z</time>
      </trkpt>
      <trkpt lat="43.06094" lon="2.02013">
        <ele>369.432495</ele>
        <time>2018-10-03T08:31:12Z</time>
      </trkpt>
      <trkpt lat="43.0609" lon="2.01999">
        <ele>369.201263</ele>
        <time>2018-10-03T08:31:17Z</time>
      </trkpt>
      <trkpt lat="43.06046" lon="2.01917">
        <ele>370.682495</ele>
        <time>2018-10-03T08:31:29Z</time>
      </trkpt>
      <trkpt lat="43.06028" lon="2.01892">
        <ele>372.320007</ele>
        <time>2018-10-03T08:31:34Z</time>
      </trkpt>
      <trkpt lat="43.05993" lon="2.01879">
        <ele>374.802887</ele>
        <time>2018-10-03T08:31:40Z</time>
      </trkpt>
      <trkpt lat="43.05986" lon="2.01889">
        <ele>375.173737</ele>
        <time>2018-10-03T08:31:49Z</time>
      </trkpt>
      <trkpt lat="43.05957" lon="2.01889">
        <ele>377.642609</ele>
        <time>2018-10-03T08:32:06Z</time>
      </trkpt>
      <trkpt lat="43.05946" lon="2.01887">
        <ele>378.576996</ele>
        <time>2018-10-03T08:32:16Z</time>
      </trkpt>
      <trkpt lat="43.05914" lon="2.01861">
        <ele>380.225922</ele>
        <time>2018-10-03T08:32:32Z</time>
      </trkpt>
      <trkpt lat="43.05888" lon="2.01848">
        <ele>381.159576</ele>
        <time>2018-10-03T08:32:40Z</time>
      </trkpt>
      <trkpt lat="43.05871" lon="2.01843">
        <ele>382.370575</ele>
        <time>2018-10-03T08:32:45Z</time>
      </trkpt>
      <trkpt lat="43.05859" lon="2.01834">
        <ele>383.994598</ele>
        <time>2018-10-03T08:32:50Z</time>
      </trkpt>
      <trkpt lat="43.05841" lon="2.01794">
        <ele>384.287354</ele>
        <time>2018-10-03T08:33:09Z</time>
      </trkpt>
      <trkpt lat="43.05822" lon="2.01774">
        <ele>385.881592</ele>
        <time>2018-10-03T08:33:26Z</time>
      </trkpt>
      <trkpt lat="43.05804" lon="2.01761">
        <ele>388.525513</ele>
        <time>2018-10-03T08:33:38Z</time>
      </trkpt>
      <trkpt lat="43.05791" lon="2.01749">
        <ele>389.601746</ele>
        <time>2018-10-03T08:33:49Z</time>
      </trkpt>
      <trkpt lat="43.05778" lon="2.01736">
        <ele>390.339386</ele>
        <time>2018-10-03T08:33:58Z</time>
      </trkpt>
      <trkpt lat="43.05725" lon="2.01702">
        <ele>392.693878</ele>
        <time>2018-10-03T08:34:16Z</time>
      </trkpt>
      <trkpt lat="43.05702" lon="2.01693">
        <ele>393.497162</ele>
        <time>2018-10-03T08:34:22Z</time>
      </trkpt>
      <trkpt lat="43.0566" lon="2.01669">
        <ele>394.026794</ele>
        <time>2018-10-03T08:34:29Z</time>
      </trkpt>
      <trkpt lat="43.0564" lon="2.01662">
        <ele>394.584991</ele>
        <time>2018-10-03T08:34:34Z</time>
      </trkpt>
      <trkpt lat="43.05632" lon="2.01662">
        <ele>395.087494</ele>
        <time>2018-10-03T08:42:01Z</time>
      </trkpt>
      <trkpt lat="43.05602" lon="2.01647">
        <ele>394.92099</ele>
        <time>2018-10-03T08:42:10Z</time>
      </trkpt>
      <trkpt lat="43.05502" lon="2.01583">
        <ele>391.516174</ele>
        <time>2018-10-03T08:42:21Z</time>
      </trkpt>
      <trkpt lat="43.05463" lon="2.01566">
        <ele>390.996429</ele>
        <time>2018-10-03T08:42:27Z</time>
      </trkpt>
      <trkpt lat="43.05435" lon="2.01541">
        <ele>392.300415</ele>
        <time>2018-10-03T08:43:13Z</time>
      </trkpt>
      <trkpt lat="43.05418" lon="2.01496">
        <ele>392.738251</ele>
        <time>2018-10-03T08:43:28Z</time>
      </trkpt>
      <trkpt lat="43.05396" lon="2.01466">
        <ele>394.446747</ele>
        <time>2018-10-03T08:43:40Z</time>
      </trkpt>
      <trkpt lat="43.05367" lon="2.01434">
        <ele>395.282166</ele>
        <time>2018-10-03T08:43:47Z</time>
      </trkpt>
      <trkpt lat="43.05351" lon="2.01419">
        <ele>396.690063</ele>
        <time>2018-10-03T08:43:55Z</time>
      </trkpt>
      <trkpt lat="43.05312" lon="2.01364">
        <ele>400.454559</ele>
        <time>2018-10-03T08:44:09Z</time>
      </trkpt>
      <trkpt lat="43.05292" lon="2.01341">
        <ele>401.697601</ele>
        <time>2018-10-03T08:44:18Z</time>
      </trkpt>
      <trkpt lat="43.05256" lon="2.01329">
        <ele>403.640076</ele>
        <time>2018-10-03T08:44:33Z</time>
      </trkpt>
      <trkpt lat="43.05244" lon="2.0133">
        <ele>404.657074</ele>
        <time>2018-10-03T08:44:39Z</time>
      </trkpt>
      <trkpt lat="43.0522" lon="2.01331">
        <ele>406.213593</ele>
        <time>2018-10-03T08:44:53Z</time>
      </trkpt>
      <trkpt lat="43.05212" lon="2.0135">
        <ele>410.196381</ele>
        <time>2018-10-03T08:45:08Z</time>
      </trkpt>
      <trkpt lat="43.05166" lon="2.01345">
        <ele>410.200348</ele>
        <time>2018-10-03T08:45:20Z</time>
      </trkpt>
      <trkpt lat="43.05149" lon="2.01356">
        <ele>411.154694</ele>
        <time>2018-10-03T08:45:28Z</time>
      </trkpt>
      <trkpt lat="43.05123" lon="2.01348">
        <ele>409.355865</ele>
        <time>2018-10-03T08:45:34Z</time>
      </trkpt>
      <trkpt lat="43.05103" lon="2.01339">
        <ele>408.716003</ele>
        <time>2018-10-03T08:45:39Z</time>
      </trkpt>
      <trkpt lat="43.05094" lon="2.01332">
        <ele>409.015503</ele>
        <time>2018-10-03T08:45:43Z</time>
      </trkpt>
      <trkpt lat="43.05091" lon="2.01331">
        <ele>409.194</ele>
        <time>2018-10-03T08:45:50Z</time>
      </trkpt>
      <trkpt lat="43.05069" lon="2.0134">
        <ele>410.380005</ele>
        <time>2018-10-03T08:46:19Z</time>
      </trkpt>
      <trkpt lat="43.05035" lon="2.01389">
        <ele>412.571594</ele>
        <time>2018-10-03T08:46:32Z</time>
      </trkpt>
      <trkpt lat="43.05019" lon="2.01417">
        <ele>412.160828</ele>
        <time>2018-10-03T08:46:39Z</time>
      </trkpt>
      <trkpt lat="43.05006" lon="2.01438">
        <ele>412.322662</ele>
        <time>2018-10-03T08:46:45Z</time>
      </trkpt>
      <trkpt lat="43.04985" lon="2.01465">
        <ele>414.477875</ele>
        <time>2018-10-03T08:46:52Z</time>
      </trkpt>
      <trkpt lat="43.0497" lon="2.01482">
        <ele>414.750549</ele>
        <time>2018-10-03T08:46:58Z</time>
      </trkpt>
      <trkpt lat="43.04953" lon="2.01489">
        <ele>416.060669</ele>
        <time>2018-10-03T08:47:03Z</time>
      </trkpt>
      <trkpt lat="43.04937" lon="2.01503">
        <ele>415.557495</ele>
        <time>2018-10-03T08:47:08Z</time>
      </trkpt>
      <trkpt lat="43.0491" lon="2.01547">
        <ele>418.579407</ele>
        <time>2018-10-03T08:47:20Z</time>
      </trkpt>
      <trkpt lat="43.04884" lon="2.01555">
        <ele>418.779175</ele>
        <time>2018-10-03T08:47:28Z</time>
      </trkpt>
      <trkpt lat="43.04871" lon="2.01552">
        <ele>420.881012</ele>
        <time>2018-10-03T08:47:35Z</time>
      </trkpt>
      <trkpt lat="43.04855" lon="2.01562">
        <ele>420.401031</ele>
        <time>2018-10-03T08:47:51Z</time>
      </trkpt>
      <trkpt lat="43.04862" lon="2.01566">
        <ele>419.186462</ele>
        <time>2018-10-03T08:47:55Z</time>
      </trkpt>
      <trkpt lat="43.04858" lon="2.0157">
        <ele>419.644257</ele>
        <time>2018-10-03T08:48:03Z</time>
      </trkpt>
      <trkpt lat="43.04846" lon="2.01569">
        <ele>420.578308</ele>
        <time>2018-10-03T08:48:16Z</time>
      </trkpt>
      <trkpt lat="43.04833" lon="2.01561">
        <ele>423.291565</ele>
        <time>2018-10-03T08:48:30Z</time>
      </trkpt>
      <trkpt lat="43.04787" lon="2.01577">
        <ele>426.722534</ele>
        <time>2018-10-03T08:49:39Z</time>
      </trkpt>
      <trkpt lat="43.04773" lon="2.01566">
        <ele>428.930084</ele>
        <time>2018-10-03T08:49:54Z</time>
      </trkpt>
      <trkpt lat="43.0476" lon="2.01549">
        <ele>432.684509</ele>
        <time>2018-10-03T08:50:14Z</time>
      </trkpt>
      <trkpt lat="43.04749" lon="2.0153">
        <ele>435.889618</ele>
        <time>2018-10-03T08:50:31Z</time>
      </trkpt>
      <trkpt lat="43.04736" lon="2.01516">
        <ele>438.526855</ele>
        <time>2018-10-03T08:50:45Z</time>
      </trkpt>
      <trkpt lat="43.0472" lon="2.01486">
        <ele>442.843811</ele>
        <time>2018-10-03T08:51:10Z</time>
      </trkpt>
      <trkpt lat="43.04715" lon="2.01459">
        <ele>446.345093</ele>
        <time>2018-10-03T08:51:26Z</time>
      </trkpt>
      <trkpt lat="43.04706" lon="2.01435">
        <ele>448.517853</ele>
        <time>2018-10-03T08:51:44Z</time>
      </trkpt>
      <trkpt lat="43.04692" lon="2.01414">
        <ele>451.553528</ele>
        <time>2018-10-03T08:52:03Z</time>
      </trkpt>
      <trkpt lat="43.0468" lon="2.014">
        <ele>452.534729</ele>
        <time>2018-10-03T08:52:15Z</time>
      </trkpt>
      <trkpt lat="43.04665" lon="2.01379">
        <ele>453.260498</ele>
        <time>2018-10-03T08:52:35Z</time>
      </trkpt>
      <trkpt lat="43.04652" lon="2.01379">
        <ele>453.925537</ele>
        <time>2018-10-03T08:52:53Z</time>
      </trkpt>
      <trkpt lat="43.04647" lon="2.01424">
        <ele>452.223785</ele>
        <time>2018-10-03T08:53:50Z</time>
      </trkpt>
      <trkpt lat="43.04647" lon="2.01444">
        <ele>451.364899</ele>
        <time>2018-10-03T08:54:04Z</time>
      </trkpt>
      <trkpt lat="43.0464" lon="2.0148">
        <ele>453.607391</ele>
        <time>2018-10-03T08:54:22Z</time>
      </trkpt>
      <trkpt lat="43.04634" lon="2.015">
        <ele>455.740631</ele>
        <time>2018-10-03T08:54:35Z</time>
      </trkpt>
      <trkpt lat="43.0463" lon="2.01541">
        <ele>458.45517</ele>
        <time>2018-10-03T08:54:56Z</time>
      </trkpt>
      <trkpt lat="43.04633" lon="2.0155">
        <ele>458.222778</ele>
        <time>2018-10-03T08:55:04Z</time>
      </trkpt>
      <trkpt lat="43.04623" lon="2.0155">
        <ele>461.000305</ele>
        <time>2018-10-03T08:55:22Z</time>
      </trkpt>
      <trkpt lat="43.04603" lon="2.01564">
        <ele>468.313049</ele>
        <time>2018-10-03T08:55:31Z</time>
      </trkpt>
      <trkpt lat="43.04601" lon="2.0158">
        <ele>469.216919</ele>
        <time>2018-10-03T08:55:41Z</time>
      </trkpt>
      <trkpt lat="43.04592" lon="2.01601">
        <ele>472.883881</ele>
        <time>2018-10-03T08:55:59Z</time>
      </trkpt>
      <trkpt lat="43.04591" lon="2.01618">
        <ele>473.638489</ele>
        <time>2018-10-03T08:56:12Z</time>
      </trkpt>
      <trkpt lat="43.04593" lon="2.01637">
        <ele>472.716278</ele>
        <time>2018-10-03T08:56:27Z</time>
      </trkpt>
      <trkpt lat="43.04592" lon="2.01662">
        <ele>473.225098</ele>
        <time>2018-10-03T08:56:48Z</time>
      </trkpt>
      <trkpt lat="43.04581" lon="2.01659">
        <ele>477.730865</ele>
        <time>2018-10-03T08:57:02Z</time>
      </trkpt>
      <trkpt lat="43.0457" lon="2.01618">
        <ele>481.245209</ele>
        <time>2018-10-03T08:57:32Z</time>
      </trkpt>
      <trkpt lat="43.04558" lon="2.01592">
        <ele>485.357361</ele>
        <time>2018-10-03T08:57:48Z</time>
      </trkpt>
      <trkpt lat="43.0455" lon="2.01584">
        <ele>488.359192</ele>
        <time>2018-10-03T08:57:54Z</time>
      </trkpt>
      <trkpt lat="43.04563" lon="2.01551">
        <ele>481.867188</ele>
        <time>2018-10-03T08:58:18Z</time>
      </trkpt>
      <trkpt lat="43.04546" lon="2.01571">
        <ele>489.265594</ele>
        <time>2018-10-03T08:58:52Z</time>
      </trkpt>
      <trkpt lat="43.04528" lon="2.01601">
        <ele>498.242035</ele>
        <time>2018-10-03T08:59:02Z</time>
      </trkpt>
      <trkpt lat="43.04522" lon="2.01618">
        <ele>500.50592</ele>
        <time>2018-10-03T08:59:10Z</time>
      </trkpt>
      <trkpt lat="43.04526" lon="2.01641">
        <ele>500.446808</ele>
        <time>2018-10-03T08:59:25Z</time>
      </trkpt>
      <trkpt lat="43.04522" lon="2.01649">
        <ele>501.362457</ele>
        <time>2018-10-03T08:59:37Z</time>
      </trkpt>
      <trkpt lat="43.04505" lon="2.01648">
        <ele>504.889496</ele>
        <time>2018-10-03T09:01:18Z</time>
      </trkpt>
      <trkpt lat="43.04488" lon="2.01619">
        <ele>507.361115</ele>
        <time>2018-10-03T09:01:37Z</time>
      </trkpt>
      <trkpt lat="43.04487" lon="2.01599">
        <ele>506.865631</ele>
        <time>2018-10-03T09:01:50Z</time>
      </trkpt>
      <trkpt lat="43.04484" lon="2.01584">
        <ele>506.990814</ele>
        <time>2018-10-03T09:01:58Z</time>
      </trkpt>
      <trkpt lat="43.04478" lon="2.01559">
        <ele>507.658142</ele>
        <time>2018-10-03T09:02:12Z</time>
      </trkpt>
      <trkpt lat="43.04452" lon="2.01546">
        <ele>513.003479</ele>
        <time>2018-10-03T09:03:08Z</time>
      </trkpt>
      <trkpt lat="43.04428" lon="2.01542">
        <ele>518.213745</ele>
        <time>2018-10-03T09:03:34Z</time>
      </trkpt>
      <trkpt lat="43.0441" lon="2.01552">
        <ele>522.101257</ele>
        <time>2018-10-03T09:03:47Z</time>
      </trkpt>
      <trkpt lat="43.04388" lon="2.01556">
        <ele>526.771057</ele>
        <time>2018-10-03T09:03:58Z</time>
      </trkpt>
      <trkpt lat="43.04379" lon="2.01559">
        <ele>528.318176</ele>
        <time>2018-10-03T09:04:08Z</time>
      </trkpt>
      <trkpt lat="43.04371" lon="2.01569">
        <ele>529.705139</ele>
        <time>2018-10-03T09:04:21Z</time>
      </trkpt>
      <trkpt lat="43.04355" lon="2.01583">
        <ele>532.095886</ele>
        <time>2018-10-03T09:04:28Z</time>
      </trkpt>
      <trkpt lat="43.04353" lon="2.01586">
        <ele>532.32666</ele>
        <time>2018-10-03T09:04:40Z</time>
      </trkpt>
      <trkpt lat="43.04333" lon="2.01593">
        <ele>534.597168</ele>
        <time>2018-10-03T09:04:47Z</time>
      </trkpt>
      <trkpt lat="43.04315" lon="2.01604">
        <ele>536.590454</ele>
        <time>2018-10-03T09:04:56Z</time>
      </trkpt>
      <trkpt lat="43.04299" lon="2.01621">
        <ele>538.659424</ele>
        <time>2018-10-03T09:05:07Z</time>
      </trkpt>
      <trkpt lat="43.04283" lon="2.01642">
        <ele>538.959534</ele>
        <time>2018-10-03T09:05:20Z</time>
      </trkpt>
      <trkpt lat="43.04268" lon="2.01672">
        <ele>540.014343</ele>
        <time>2018-10-03T09:05:35Z</time>
      </trkpt>
      <trkpt lat="43.04248" lon="2.01719">
        <ele>540.788391</ele>
        <time>2018-10-03T09:05:54Z</time>
      </trkpt>
      <trkpt lat="43.04241" lon="2.01769">
        <ele>541.582947</ele>
        <time>2018-10-03T09:06:18Z</time>
      </trkpt>
      <trkpt lat="43.04219" lon="2.01787">
        <ele>541.158997</ele>
        <time>2018-10-03T09:06:32Z</time>
      </trkpt>
      <trkpt lat="43.04187" lon="2.01784">
        <ele>540.82605</ele>
        <time>2018-10-03T09:06:43Z</time>
      </trkpt>
      <trkpt lat="43.04167" lon="2.01788">
        <ele>541.146423</ele>
        <time>2018-10-03T09:06:49Z</time>
      </trkpt>
      <trkpt lat="43.04152" lon="2.01795">
        <ele>543.063049</ele>
        <time>2018-10-03T09:06:55Z</time>
      </trkpt>
      <trkpt lat="43.04136" lon="2.01794">
        <ele>544.085754</ele>
        <time>2018-10-03T09:07:04Z</time>
      </trkpt>
      <trkpt lat="43.04105" lon="2.01829">
        <ele>548.045105</ele>
        <time>2018-10-03T09:07:22Z</time>
      </trkpt>
      <trkpt lat="43.04091" lon="2.01847">
        <ele>549.005981</ele>
        <time>2018-10-03T09:07:30Z</time>
      </trkpt>
      <trkpt lat="43.04072" lon="2.01883">
        <ele>550.466248</ele>
        <time>2018-10-03T09:07:49Z</time>
      </trkpt>
      <trkpt lat="43.04064" lon="2.01896">
        <ele>550.725525</ele>
        <time>2018-10-03T09:07:56Z</time>
      </trkpt>
      <trkpt lat="43.04043" lon="2.01945">
        <ele>550.078552</ele>
        <time>2018-10-03T09:08:16Z</time>
      </trkpt>
      <trkpt lat="43.04021" lon="2.0198">
        <ele>548.473694</ele>
        <time>2018-10-03T09:08:26Z</time>
      </trkpt>
      <trkpt lat="43.03987" lon="2.02009">
        <ele>550.661987</ele>
        <time>2018-10-03T09:08:32Z</time>
      </trkpt>
      <trkpt lat="43.03973" lon="2.02024">
        <ele>548.065613</ele>
        <time>2018-10-03T09:08:37Z</time>
      </trkpt>
      <trkpt lat="43.03954" lon="2.02048">
        <ele>545.101563</ele>
        <time>2018-10-03T09:08:45Z</time>
      </trkpt>
      <trkpt lat="43.03942" lon="2.02069">
        <ele>544.348389</ele>
        <time>2018-10-03T09:08:52Z</time>
      </trkpt>
      <trkpt lat="43.03927" lon="2.02111">
        <ele>544.761475</ele>
        <time>2018-10-03T09:09:07Z</time>
      </trkpt>
      <trkpt lat="43.03912" lon="2.02142">
        <ele>543.769531</ele>
        <time>2018-10-03T09:09:15Z</time>
      </trkpt>
      <trkpt lat="43.03902" lon="2.02158">
        <ele>542.486938</ele>
        <time>2018-10-03T09:09:19Z</time>
      </trkpt>
      <trkpt lat="43.03897" lon="2.02189">
        <ele>542.482483</ele>
        <time>2018-10-03T09:09:26Z</time>
      </trkpt>
      <trkpt lat="43.039" lon="2.02261">
        <ele>545.904785</ele>
        <time>2018-10-03T09:09:44Z</time>
      </trkpt>
      <trkpt lat="43.03905" lon="2.02293">
        <ele>548.874084</ele>
        <time>2018-10-03T09:09:52Z</time>
      </trkpt>
      <trkpt lat="43.03912" lon="2.02311">
        <ele>551.321228</ele>
        <time>2018-10-03T09:09:57Z</time>
      </trkpt>
      <trkpt lat="43.03915" lon="2.02325">
        <ele>552.737488</ele>
        <time>2018-10-03T09:10:01Z</time>
      </trkpt>
      <trkpt lat="43.03918" lon="2.02354">
        <ele>554.820007</ele>
        <time>2018-10-03T09:10:12Z</time>
      </trkpt>
      <trkpt lat="43.03919" lon="2.02376">
        <ele>555.892517</ele>
        <time>2018-10-03T09:10:22Z</time>
      </trkpt>
      <trkpt lat="43.03922" lon="2.02408">
        <ele>557.779968</ele>
        <time>2018-10-03T09:10:34Z</time>
      </trkpt>
      <trkpt lat="43.03916" lon="2.0244">
        <ele>557.554993</ele>
        <time>2018-10-03T09:10:45Z</time>
      </trkpt>
      <trkpt lat="43.03912" lon="2.02453">
        <ele>557.217529</ele>
        <time>2018-10-03T09:10:51Z</time>
      </trkpt>
      <trkpt lat="43.03901" lon="2.02482">
        <ele>555.837524</ele>
        <time>2018-10-03T09:11:02Z</time>
      </trkpt>
      <trkpt lat="43.03885" lon="2.02504">
        <ele>553.732483</ele>
        <time>2018-10-03T09:11:10Z</time>
      </trkpt>
      <trkpt lat="43.03835" lon="2.02548">
        <ele>552.684814</ele>
        <time>2018-10-03T09:11:17Z</time>
      </trkpt>
      <trkpt lat="43.03821" lon="2.02556">
        <ele>553.487488</ele>
        <time>2018-10-03T09:11:25Z</time>
      </trkpt>
      <trkpt lat="43.03796" lon="2.02564">
        <ele>553.992615</ele>
        <time>2018-10-03T09:11:30Z</time>
      </trkpt>
      <trkpt lat="43.03774" lon="2.0258">
        <ele>556.082825</ele>
        <time>2018-10-03T09:11:37Z</time>
      </trkpt>
      <trkpt lat="43.0376" lon="2.02593">
        <ele>557.070129</ele>
        <time>2018-10-03T09:11:42Z</time>
      </trkpt>
      <trkpt lat="43.03736" lon="2.02618">
        <ele>557.537537</ele>
        <time>2018-10-03T09:11:49Z</time>
      </trkpt>
      <trkpt lat="43.03695" lon="2.02664">
        <ele>558.280212</ele>
        <time>2018-10-03T09:12:02Z</time>
      </trkpt>
      <trkpt lat="43.03676" lon="2.02674">
        <ele>558.075012</ele>
        <time>2018-10-03T09:12:10Z</time>
      </trkpt>
      <trkpt lat="43.03655" lon="2.02679">
        <ele>558.418762</ele>
        <time>2018-10-03T09:12:20Z</time>
      </trkpt>
      <trkpt lat="43.03633" lon="2.02685">
        <ele>558.956238</ele>
        <time>2018-10-03T09:12:29Z</time>
      </trkpt>
      <trkpt lat="43.03601" lon="2.02701">
        <ele>560.655579</ele>
        <time>2018-10-03T09:12:37Z</time>
      </trkpt>
      <trkpt lat="43.03553" lon="2.02677">
        <ele>562.215271</ele>
        <time>2018-10-03T09:13:00Z</time>
      </trkpt>
      <trkpt lat="43.03534" lon="2.02673">
        <ele>563.159851</ele>
        <time>2018-10-03T09:13:08Z</time>
      </trkpt>
      <trkpt lat="43.03516" lon="2.0267">
        <ele>563.614014</ele>
        <time>2018-10-03T09:13:20Z</time>
      </trkpt>
      <trkpt lat="43.03498" lon="2.02672">
        <ele>564.042236</ele>
        <time>2018-10-03T09:13:36Z</time>
      </trkpt>
      <trkpt lat="43.03473" lon="2.02661">
        <ele>564.280212</ele>
        <time>2018-10-03T09:14:24Z</time>
      </trkpt>
      <trkpt lat="43.03458" lon="2.02652">
        <ele>564.868958</ele>
        <time>2018-10-03T09:14:32Z</time>
      </trkpt>
      <trkpt lat="43.03439" lon="2.02653">
        <ele>565.117859</ele>
        <time>2018-10-03T09:14:44Z</time>
      </trkpt>
      <trkpt lat="43.0342" lon="2.02658">
        <ele>565.239746</ele>
        <time>2018-10-03T09:14:54Z</time>
      </trkpt>
      <trkpt lat="43.03404" lon="2.02664">
        <ele>565.006042</ele>
        <time>2018-10-03T09:15:01Z</time>
      </trkpt>
      <trkpt lat="43.03385" lon="2.02665">
        <ele>564.6073</ele>
        <time>2018-10-03T09:15:12Z</time>
      </trkpt>
      <trkpt lat="43.03366" lon="2.02662">
        <ele>564.517883</ele>
        <time>2018-10-03T09:15:28Z</time>
      </trkpt>
      <trkpt lat="43.03352" lon="2.02663">
        <ele>563.999512</ele>
        <time>2018-10-03T09:15:36Z</time>
      </trkpt>
      <trkpt lat="43.03329" lon="2.02658">
        <ele>563.740906</ele>
        <time>2018-10-03T09:15:49Z</time>
      </trkpt>
      <trkpt lat="43.03256" lon="2.02652">
        <ele>565.283447</ele>
        <time>2018-10-03T09:16:32Z</time>
      </trkpt>
      <trkpt lat="43.03206" lon="2.02632">
        <ele>563.704468</ele>
        <time>2018-10-03T09:16:47Z</time>
      </trkpt>
      <trkpt lat="43.03179" lon="2.02641">
        <ele>561.275024</ele>
        <time>2018-10-03T09:16:54Z</time>
      </trkpt>
      <trkpt lat="43.03135" lon="2.0262">
        <ele>557.773743</ele>
        <time>2018-10-03T09:17:25Z</time>
      </trkpt>
      <trkpt lat="43.03081" lon="2.02602">
        <ele>553.993591</ele>
        <time>2018-10-03T09:17:35Z</time>
      </trkpt>
      <trkpt lat="43.03031" lon="2.02594">
        <ele>551.690552</ele>
        <time>2018-10-03T09:17:42Z</time>
      </trkpt>
      <trkpt lat="43.029" lon="2.02626">
        <ele>545.497559</ele>
        <time>2018-10-03T09:18:00Z</time>
      </trkpt>
      <trkpt lat="43.02882" lon="2.02632">
        <ele>544.039246</ele>
        <time>2018-10-03T09:18:05Z</time>
      </trkpt>
      <trkpt lat="43.02871" lon="2.0263">
        <ele>543.504944</ele>
        <time>2018-10-03T09:18:13Z</time>
      </trkpt>
      <trkpt lat="43.02841" lon="2.02628">
        <ele>541.18811</ele>
        <time>2018-10-03T09:18:18Z</time>
      </trkpt>
      <trkpt lat="43.02778" lon="2.02607">
        <ele>535.060364</ele>
        <time>2018-10-03T09:18:31Z</time>
      </trkpt>
      <trkpt lat="43.02723" lon="2.02597">
        <ele>530.340027</ele>
        <time>2018-10-03T09:18:40Z</time>
      </trkpt>
      <trkpt lat="43.02697" lon="2.02589">
        <ele>528.622498</ele>
        <time>2018-10-03T09:18:46Z</time>
      </trkpt>
      <trkpt lat="43.02649" lon="2.0258">
        <ele>525.102722</ele>
        <time>2018-10-03T09:18:55Z</time>
      </trkpt>
      <trkpt lat="43.02619" lon="2.02576">
        <ele>523.059998</ele>
        <time>2018-10-03T09:19:01Z</time>
      </trkpt>
      <trkpt lat="43.02557" lon="2.02562">
        <ele>519.126038</ele>
        <time>2018-10-03T09:19:13Z</time>
      </trkpt>
      <trkpt lat="43.02535" lon="2.02553">
        <ele>516.853088</ele>
        <time>2018-10-03T09:19:18Z</time>
      </trkpt>
      <trkpt lat="43.02505" lon="2.02528">
        <ele>513.85498</ele>
        <time>2018-10-03T09:19:24Z</time>
      </trkpt>
      <trkpt lat="43.02465" lon="2.02503">
        <ele>512.109985</ele>
        <time>2018-10-03T09:19:31Z</time>
      </trkpt>
      <trkpt lat="43.02429" lon="2.02476">
        <ele>512.011353</ele>
        <time>2018-10-03T09:19:43Z</time>
      </trkpt>
      <trkpt lat="43.02414" lon="2.02461">
        <ele>512.223511</ele>
        <time>2018-10-03T09:19:49Z</time>
      </trkpt>
      <trkpt lat="43.02388" lon="2.02444">
        <ele>513.982117</ele>
        <time>2018-10-03T09:19:55Z</time>
      </trkpt>
      <trkpt lat="43.0236" lon="2.02438">
        <ele>516.37207</ele>
        <time>2018-10-03T09:20:02Z</time>
      </trkpt>
      <trkpt lat="43.02363" lon="2.02438">
        <ele>516.117126</ele>
        <time>2018-10-03T09:20:08Z</time>
      </trkpt>
      <trkpt lat="43.02347" lon="2.02429">
        <ele>516.969971</ele>
        <time>2018-10-03T09:20:28Z</time>
      </trkpt>
      <trkpt lat="43.02309" lon="2.02411">
        <ele>520.361816</ele>
        <time>2018-10-03T09:20:52Z</time>
      </trkpt>
      <trkpt lat="43.02281" lon="2.02386">
        <ele>522.141235</ele>
        <time>2018-10-03T09:21:18Z</time>
      </trkpt>
      <trkpt lat="43.02273" lon="2.02391">
        <ele>523.63501</ele>
        <time>2018-10-03T09:21:31Z</time>
      </trkpt>
      <trkpt lat="43.02257" lon="2.02394">
        <ele>526.002502</ele>
        <time>2018-10-03T09:21:40Z</time>
      </trkpt>
      <trkpt lat="43.02239" lon="2.02408">
        <ele>529.598755</ele>
        <time>2018-10-03T09:21:50Z</time>
      </trkpt>
      <trkpt lat="43.02223" lon="2.02416">
        <ele>531.021973</ele>
        <time>2018-10-03T09:22:01Z</time>
      </trkpt>
      <trkpt lat="43.02194" lon="2.02437">
        <ele>531.960327</ele>
        <time>2018-10-03T09:22:19Z</time>
      </trkpt>
      <trkpt lat="43.02182" lon="2.02438">
        <ele>532.589172</ele>
        <time>2018-10-03T09:22:26Z</time>
      </trkpt>
      <trkpt lat="43.02146" lon="2.02446">
        <ele>534.562927</ele>
        <time>2018-10-03T09:22:44Z</time>
      </trkpt>
      <trkpt lat="43.02133" lon="2.02438">
        <ele>536.328674</ele>
        <time>2018-10-03T09:22:52Z</time>
      </trkpt>
      <trkpt lat="43.02117" lon="2.02427">
        <ele>538.844238</ele>
        <time>2018-10-03T09:23:04Z</time>
      </trkpt>
      <trkpt lat="43.02101" lon="2.02427">
        <ele>540.756653</ele>
        <time>2018-10-03T09:23:14Z</time>
      </trkpt>
      <trkpt lat="43.0208" lon="2.02426">
        <ele>544.086121</ele>
        <time>2018-10-03T09:23:25Z</time>
      </trkpt>
      <trkpt lat="43.0206" lon="2.02426">
        <ele>547.103271</ele>
        <time>2018-10-03T09:23:34Z</time>
      </trkpt>
      <trkpt lat="43.02044" lon="2.0243">
        <ele>547.694397</ele>
        <time>2018-10-03T09:23:43Z</time>
      </trkpt>
      <trkpt lat="43.02008" lon="2.02459">
        <ele>546.394592</ele>
        <time>2018-10-03T09:23:54Z</time>
      </trkpt>
      <trkpt lat="43.01975" lon="2.02479">
        <ele>544.014709</ele>
        <time>2018-10-03T09:23:59Z</time>
      </trkpt>
      <trkpt lat="43.019" lon="2.02513">
        <ele>540.992981</ele>
        <time>2018-10-03T09:24:08Z</time>
      </trkpt>
      <trkpt lat="43.01881" lon="2.02537">
        <ele>540.86676</ele>
        <time>2018-10-03T09:24:15Z</time>
      </trkpt>
      <trkpt lat="43.01841" lon="2.02563">
        <ele>542.00415</ele>
        <time>2018-10-03T09:24:24Z</time>
      </trkpt>
      <trkpt lat="43.01788" lon="2.02601">
        <ele>542.29071</ele>
        <time>2018-10-03T09:24:37Z</time>
      </trkpt>
      <trkpt lat="43.0176" lon="2.02617">
        <ele>543.620483</ele>
        <time>2018-10-03T09:24:46Z</time>
      </trkpt>
      <trkpt lat="43.01708" lon="2.02633">
        <ele>543.184998</ele>
        <time>2018-10-03T09:25:02Z</time>
      </trkpt>
      <trkpt lat="43.01682" lon="2.02644">
        <ele>542.866943</ele>
        <time>2018-10-03T09:25:10Z</time>
      </trkpt>
      <trkpt lat="43.01657" lon="2.02649">
        <ele>542.602051</ele>
        <time>2018-10-03T09:25:17Z</time>
      </trkpt>
      <trkpt lat="43.01618" lon="2.02646">
        <ele>541.804993</ele>
        <time>2018-10-03T09:25:23Z</time>
      </trkpt>
      <trkpt lat="43.01601" lon="2.0264">
        <ele>541.621948</ele>
        <time>2018-10-03T09:25:30Z</time>
      </trkpt>
      <trkpt lat="43.01514" lon="2.02621">
        <ele>542.180298</ele>
        <time>2018-10-03T09:25:56Z</time>
      </trkpt>
      <trkpt lat="43.01452" lon="2.02636">
        <ele>542.725708</ele>
        <time>2018-10-03T09:26:02Z</time>
      </trkpt>
      <trkpt lat="43.01427" lon="2.02637">
        <ele>542.889526</ele>
        <time>2018-10-03T09:26:06Z</time>
      </trkpt>
      <trkpt lat="43.01344" lon="2.02686">
        <ele>543.975647</ele>
        <time>2018-10-03T09:26:16Z</time>
      </trkpt>
      <trkpt lat="43.01301" lon="2.02678">
        <ele>542.032776</ele>
        <time>2018-10-03T09:26:22Z</time>
      </trkpt>
      <trkpt lat="43.01272" lon="2.0267">
        <ele>540.974426</ele>
        <time>2018-10-03T09:26:27Z</time>
      </trkpt>
      <trkpt lat="43.01229" lon="2.02615">
        <ele>540.190674</ele>
        <time>2018-10-03T09:26:34Z</time>
      </trkpt>
      <trkpt lat="43.012" lon="2.02602">
        <ele>540.076477</ele>
        <time>2018-10-03T09:26:38Z</time>
      </trkpt>
      <trkpt lat="43.01186" lon="2.02613">
        <ele>539.271179</ele>
        <time>2018-10-03T09:26:48Z</time>
      </trkpt>
      <trkpt lat="43.01158" lon="2.02622">
        <ele>538.45636</ele>
        <time>2018-10-03T09:26:54Z</time>
      </trkpt>
      <trkpt lat="43.01104" lon="2.02634">
        <ele>539.859436</ele>
        <time>2018-10-03T09:27:06Z</time>
      </trkpt>
      <trkpt lat="43.01053" lon="2.02678">
        <ele>535.038086</ele>
        <time>2018-10-03T09:27:15Z</time>
      </trkpt>
      <trkpt lat="43.0101" lon="2.02826">
        <ele>538.536926</ele>
        <time>2018-10-03T09:27:25Z</time>
      </trkpt>
      <trkpt lat="43.00986" lon="2.02874">
        <ele>538.692871</ele>
        <time>2018-10-03T09:27:31Z</time>
      </trkpt>
      <trkpt lat="43.00972" lon="2.02864">
        <ele>538.482788</ele>
        <time>2018-10-03T09:27:37Z</time>
      </trkpt>
      <trkpt lat="43.00954" lon="2.0284">
        <ele>538.06012</ele>
        <time>2018-10-03T09:27:42Z</time>
      </trkpt>
      <trkpt lat="43.00918" lon="2.0279">
        <ele>535.759766</ele>
        <time>2018-10-03T09:27:53Z</time>
      </trkpt>
      <trkpt lat="43.00895" lon="2.0277">
        <ele>536.094238</ele>
        <time>2018-10-03T09:27:59Z</time>
      </trkpt>
      <trkpt lat="43.00883" lon="2.02771">
        <ele>537.393738</ele>
        <time>2018-10-03T09:28:05Z</time>
      </trkpt>
      <trkpt lat="43.00869" lon="2.02771">
        <ele>538.20166</ele>
        <time>2018-10-03T09:28:12Z</time>
      </trkpt>
      <trkpt lat="43.00842" lon="2.02752">
        <ele>536.684204</ele>
        <time>2018-10-03T09:28:21Z</time>
      </trkpt>
      <trkpt lat="43.00741" lon="2.02721">
        <ele>538.689392</ele>
        <time>2018-10-03T09:28:37Z</time>
      </trkpt>
      <trkpt lat="43.00685" lon="2.02698">
        <ele>539.538086</ele>
        <time>2018-10-03T09:28:43Z</time>
      </trkpt>
      <trkpt lat="43.00666" lon="2.02689">
        <ele>540.005981</ele>
        <time>2018-10-03T09:28:46Z</time>
      </trkpt>
      <trkpt lat="43.00639" lon="2.02673">
        <ele>539.133423</ele>
        <time>2018-10-03T09:28:51Z</time>
      </trkpt>
      <trkpt lat="43.00628" lon="2.02664">
        <ele>539.312744</ele>
        <time>2018-10-03T09:28:54Z</time>
      </trkpt>
      <trkpt lat="43.00581" lon="2.02637">
        <ele>539.933228</ele>
        <time>2018-10-03T09:29:08Z</time>
      </trkpt>
      <trkpt lat="43.00567" lon="2.02635">
        <ele>538.933411</ele>
        <time>2018-10-03T09:29:19Z</time>
      </trkpt>
      <trkpt lat="43.00557" lon="2.02637">
        <ele>537.660461</ele>
        <time>2018-10-03T09:29:36Z</time>
      </trkpt>
      <trkpt lat="43.00541" lon="2.02629">
        <ele>537.822998</ele>
        <time>2018-10-03T09:29:54Z</time>
      </trkpt>
      <trkpt lat="43.00525" lon="2.02618">
        <ele>537.11676</ele>
        <time>2018-10-03T09:30:00Z</time>
      </trkpt>
      <trkpt lat="43.00441" lon="2.02538">
        <ele>533.011292</ele>
        <time>2018-10-03T09:30:08Z</time>
      </trkpt>
      <trkpt lat="43.00409" lon="2.02501">
        <ele>532.989014</ele>
        <time>2018-10-03T09:30:13Z</time>
      </trkpt>
      <trkpt lat="43.0038" lon="2.02457">
        <ele>531.718384</ele>
        <time>2018-10-03T09:30:19Z</time>
      </trkpt>
      <trkpt lat="43.00369" lon="2.02429">
        <ele>532.390442</ele>
        <time>2018-10-03T09:30:26Z</time>
      </trkpt>
      <trkpt lat="43.00353" lon="2.02378">
        <ele>534.731934</ele>
        <time>2018-10-03T09:30:39Z</time>
      </trkpt>
      <trkpt lat="43.00353" lon="2.02344">
        <ele>535.257568</ele>
        <time>2018-10-03T09:30:49Z</time>
      </trkpt>
      <trkpt lat="43.00351" lon="2.02316">
        <ele>536.29718</ele>
        <time>2018-10-03T09:30:56Z</time>
      </trkpt>
      <trkpt lat="43.00342" lon="2.02272">
        <ele>541.190857</ele>
        <time>2018-10-03T09:31:05Z</time>
      </trkpt>
      <trkpt lat="43.00324" lon="2.02222">
        <ele>544.397339</ele>
        <time>2018-10-03T09:31:14Z</time>
      </trkpt>
      <trkpt lat="43.00307" lon="2.02194">
        <ele>545.604675</ele>
        <time>2018-10-03T09:31:20Z</time>
      </trkpt>
      <trkpt lat="43.0029" lon="2.02168">
        <ele>542.757507</ele>
        <time>2018-10-03T09:31:27Z</time>
      </trkpt>
      <trkpt lat="43.00278" lon="2.02154">
        <ele>541.373291</ele>
        <time>2018-10-03T09:31:35Z</time>
      </trkpt>
      <trkpt lat="43.00257" lon="2.02145">
        <ele>542.619995</ele>
        <time>2018-10-03T09:31:45Z</time>
      </trkpt>
      <trkpt lat="43.00234" lon="2.02123">
        <ele>541.23877</ele>
        <time>2018-10-03T09:31:54Z</time>
      </trkpt>
      <trkpt lat="43.00205" lon="2.02068">
        <ele>540.243408</ele>
        <time>2018-10-03T09:32:06Z</time>
      </trkpt>
      <trkpt lat="43.00193" lon="2.02005">
        <ele>542.166687</ele>
        <time>2018-10-03T09:32:20Z</time>
      </trkpt>
      <trkpt lat="43.00189" lon="2.01992">
        <ele>542.917542</ele>
        <time>2018-10-03T09:32:23Z</time>
      </trkpt>
      <trkpt lat="43.00187" lon="2.01967">
        <ele>543.552246</ele>
        <time>2018-10-03T09:32:31Z</time>
      </trkpt>
      <trkpt lat="43.00185" lon="2.01954">
        <ele>543.315491</ele>
        <time>2018-10-03T09:32:39Z</time>
      </trkpt>
      <trkpt lat="43.00184" lon="2.01952">
        <ele>543.12616</ele>
        <time>2018-10-03T09:32:47Z</time>
      </trkpt>
      <trkpt lat="43.00196" lon="2.01926">
        <ele>542.16095</ele>
        <time>2018-10-03T09:33:10Z</time>
      </trkpt>
      <trkpt lat="43.00212" lon="2.01878">
        <ele>541.919556</ele>
        <time>2018-10-03T09:33:19Z</time>
      </trkpt>
      <trkpt lat="43.00212" lon="2.01851">
        <ele>541.040466</ele>
        <time>2018-10-03T09:33:24Z</time>
      </trkpt>
      <trkpt lat="43.00217" lon="2.01771">
        <ele>540.687195</ele>
        <time>2018-10-03T09:33:35Z</time>
      </trkpt>
      <trkpt lat="43.0022" lon="2.01564">
        <ele>542.384705</ele>
        <time>2018-10-03T09:33:52Z</time>
      </trkpt>
      <trkpt lat="43.00225" lon="2.01495">
        <ele>543.859985</ele>
        <time>2018-10-03T09:34:05Z</time>
      </trkpt>
      <trkpt lat="43.00243" lon="2.01445">
        <ele>544.306885</ele>
        <time>2018-10-03T09:34:17Z</time>
      </trkpt>
      <trkpt lat="43.00265" lon="2.01387">
        <ele>542.21051</ele>
        <time>2018-10-03T09:34:28Z</time>
      </trkpt>
      <trkpt lat="43.00278" lon="2.01362">
        <ele>540.878418</ele>
        <time>2018-10-03T09:34:33Z</time>
      </trkpt>
      <trkpt lat="43.00308" lon="2.01279">
        <ele>537.11322</ele>
        <time>2018-10-03T09:34:41Z</time>
      </trkpt>
      <trkpt lat="43.00324" lon="2.01244">
        <ele>535.192444</ele>
        <time>2018-10-03T09:34:48Z</time>
      </trkpt>
      <trkpt lat="43.00347" lon="2.01213">
        <ele>538.504517</ele>
        <time>2018-10-03T09:35:00Z</time>
      </trkpt>
      <trkpt lat="43.00386" lon="2.01027">
        <ele>530.261475</ele>
        <time>2018-10-03T09:35:26Z</time>
      </trkpt>
      <trkpt lat="43.00412" lon="2.00989">
        <ele>527.747498</ele>
        <time>2018-10-03T09:35:34Z</time>
      </trkpt>
      <trkpt lat="43.00463" lon="2.00904">
        <ele>516.954285</ele>
        <time>2018-10-03T09:35:41Z</time>
      </trkpt>
      <trkpt lat="43.00476" lon="2.00878">
        <ele>512.420776</ele>
        <time>2018-10-03T09:35:44Z</time>
      </trkpt>
      <trkpt lat="43.00498" lon="2.00828">
        <ele>505.710602</ele>
        <time>2018-10-03T09:35:50Z</time>
      </trkpt>
      <trkpt lat="43.00516" lon="2.00756">
        <ele>502.99707</ele>
        <time>2018-10-03T09:35:57Z</time>
      </trkpt>
      <trkpt lat="43.00527" lon="2.00696">
        <ele>501.726624</ele>
        <time>2018-10-03T09:36:03Z</time>
      </trkpt>
      <trkpt lat="43.0054" lon="2.00651">
        <ele>499.722809</ele>
        <time>2018-10-03T09:36:08Z</time>
      </trkpt>
      <trkpt lat="43.00548" lon="2.00611">
        <ele>498.53363</ele>
        <time>2018-10-03T09:36:13Z</time>
      </trkpt>
      <trkpt lat="43.00547" lon="2.00589">
        <ele>496.462616</ele>
        <time>2018-10-03T09:36:16Z</time>
      </trkpt>
      <trkpt lat="43.0055" lon="2.00557">
        <ele>493.406738</ele>
        <time>2018-10-03T09:36:23Z</time>
      </trkpt>
      <trkpt lat="43.00574" lon="2.00543">
        <ele>493.372803</ele>
        <time>2018-10-03T09:36:31Z</time>
      </trkpt>
      <trkpt lat="43.00574" lon="2.00466">
        <ele>491.053467</ele>
        <time>2018-10-03T09:36:44Z</time>
      </trkpt>
      <trkpt lat="43.00556" lon="2.00406">
        <ele>488.721252</ele>
        <time>2018-10-03T09:36:54Z</time>
      </trkpt>
      <trkpt lat="43.00544" lon="2.00355">
        <ele>487.016785</ele>
        <time>2018-10-03T09:37:00Z</time>
      </trkpt>
      <trkpt lat="43.00529" lon="2.00312">
        <ele>485.346039</ele>
        <time>2018-10-03T09:37:06Z</time>
      </trkpt>
      <trkpt lat="43.00501" lon="2.00211">
        <ele>474.903534</ele>
        <time>2018-10-03T09:37:19Z</time>
      </trkpt>
      <trkpt lat="43.00491" lon="2.00185">
        <ele>473.351959</ele>
        <time>2018-10-03T09:37:24Z</time>
      </trkpt>
      <trkpt lat="43.00485" lon="2.00148">
        <ele>470.480957</ele>
        <time>2018-10-03T09:37:29Z</time>
      </trkpt>
      <trkpt lat="43.00489" lon="2.00096">
        <ele>466.141449</ele>
        <time>2018-10-03T09:37:37Z</time>
      </trkpt>
      <trkpt lat="43.00485" lon="2.00081">
        <ele>464.495117</ele>
        <time>2018-10-03T09:37:47Z</time>
      </trkpt>
      <trkpt lat="43.00464" lon="2.00015">
        <ele>451.441803</ele>
        <time>2018-10-03T09:38:03Z</time>
      </trkpt>
      <trkpt lat="43.00458" lon="1.99982">
        <ele>444.51413</ele>
        <time>2018-10-03T09:38:08Z</time>
      </trkpt>
      <trkpt lat="43.00465" lon="1.99949">
        <ele>440.25647</ele>
        <time>2018-10-03T09:38:15Z</time>
      </trkpt>
      <trkpt lat="43.00474" lon="1.99927">
        <ele>438.169647</ele>
        <time>2018-10-03T09:38:29Z</time>
      </trkpt>
      <trkpt lat="43.00467" lon="1.99912">
        <ele>434.057312</ele>
        <time>2018-10-03T09:38:43Z</time>
      </trkpt>
      <trkpt lat="43.00448" lon="1.9991">
        <ele>429.923553</ele>
        <time>2018-10-03T09:38:59Z</time>
      </trkpt>
      <trkpt lat="43.00428" lon="1.99916">
        <ele>426.15332</ele>
        <time>2018-10-03T09:39:12Z</time>
      </trkpt>
      <trkpt lat="43.00419" lon="1.99893">
        <ele>420.43869</ele>
        <time>2018-10-03T09:39:23Z</time>
      </trkpt>
      <trkpt lat="43.00428" lon="1.99869">
        <ele>419.515625</ele>
        <time>2018-10-03T09:39:33Z</time>
      </trkpt>
      <trkpt lat="43.00433" lon="1.99839">
        <ele>416.519012</ele>
        <time>2018-10-03T09:39:41Z</time>
      </trkpt>
      <trkpt lat="43.00422" lon="1.99786">
        <ele>407.18396</ele>
        <time>2018-10-03T09:39:54Z</time>
      </trkpt>
      <trkpt lat="43.00422" lon="1.99762">
        <ele>404.450134</ele>
        <time>2018-10-03T09:40:00Z</time>
      </trkpt>
      <trkpt lat="43.0043" lon="1.99733">
        <ele>402.681549</ele>
        <time>2018-10-03T09:40:08Z</time>
      </trkpt>
      <trkpt lat="43.00436" lon="1.99706">
        <ele>400.391144</ele>
        <time>2018-10-03T09:40:15Z</time>
      </trkpt>
      <trkpt lat="43.00437" lon="1.99688">
        <ele>398.54776</ele>
        <time>2018-10-03T09:40:19Z</time>
      </trkpt>
      <trkpt lat="43.00445" lon="1.99632">
        <ele>393.104614</ele>
        <time>2018-10-03T09:40:25Z</time>
      </trkpt>
      <trkpt lat="43.00457" lon="1.99558">
        <ele>390.043854</ele>
        <time>2018-10-03T09:40:32Z</time>
      </trkpt>
      <trkpt lat="43.00463" lon="1.99494">
        <ele>386.520477</ele>
        <time>2018-10-03T09:40:38Z</time>
      </trkpt>
      <trkpt lat="43.00465" lon="1.99403">
        <ele>378.57782</ele>
        <time>2018-10-03T09:40:49Z</time>
      </trkpt>
      <trkpt lat="43.0047" lon="1.99388">
        <ele>377.212067</ele>
        <time>2018-10-03T09:40:54Z</time>
      </trkpt>
      <trkpt lat="43.00485" lon="1.99318">
        <ele>372.471771</ele>
        <time>2018-10-03T09:41:04Z</time>
      </trkpt>
      <trkpt lat="43.00489" lon="1.99284">
        <ele>370.575958</ele>
        <time>2018-10-03T09:41:11Z</time>
      </trkpt>
      <trkpt lat="43.00476" lon="1.9927">
        <ele>370.363068</ele>
        <time>2018-10-03T09:41:18Z</time>
      </trkpt>
      <trkpt lat="43.00464" lon="1.9926">
        <ele>370.459991</ele>
        <time>2018-10-03T09:41:24Z</time>
      </trkpt>
      <trkpt lat="43.00452" lon="1.99226">
        <ele>369.834991</ele>
        <time>2018-10-03T09:41:32Z</time>
      </trkpt>
      <trkpt lat="43.00464" lon="1.99213">
        <ele>368.904999</ele>
        <time>2018-10-03T09:41:40Z</time>
      </trkpt>
      <trkpt lat="43.00486" lon="1.99208">
        <ele>367.592499</ele>
        <time>2018-10-03T09:41:45Z</time>
      </trkpt>
      <trkpt lat="43.00525" lon="1.99184">
        <ele>364.096252</ele>
        <time>2018-10-03T09:41:52Z</time>
      </trkpt>
      <trkpt lat="43.00549" lon="1.99159">
        <ele>362.89624</ele>
        <time>2018-10-03T09:41:57Z</time>
      </trkpt>
      <trkpt lat="43.00561" lon="1.99099">
        <ele>359.948761</ele>
        <time>2018-10-03T09:42:02Z</time>
      </trkpt>
      <trkpt lat="43.00576" lon="1.98961">
        <ele>357.784668</ele>
        <time>2018-10-03T09:42:14Z</time>
      </trkpt>
      <trkpt lat="43.00591" lon="1.98937">
        <ele>357.612579</ele>
        <time>2018-10-03T09:42:19Z</time>
      </trkpt>
      <trkpt lat="43.0059" lon="1.98907">
        <ele>357.899384</ele>
        <time>2018-10-03T09:42:26Z</time>
      </trkpt>
      <trkpt lat="43.00578" lon="1.98892">
        <ele>357.940002</ele>
        <time>2018-10-03T09:42:33Z</time>
      </trkpt>
      <trkpt lat="43.00574" lon="1.98895">
        <ele>357.986237</ele>
        <time>2018-10-03T09:42:38Z</time>
      </trkpt>
      <trkpt lat="43.00574" lon="1.98896">
        <ele>357.998322</ele>
        <time>2018-10-03T09:42:45Z</time>
      </trkpt>
      <trkpt lat="43.00557" lon="1.98905">
        <ele>358.15155</ele>
        <time>2018-10-03T09:43:33Z</time>
      </trkpt>
      <trkpt lat="43.00527" lon="1.98913">
        <ele>358.61731</ele>
        <time>2018-10-03T09:43:40Z</time>
      </trkpt>
      <trkpt lat="43.00446" lon="1.98926">
        <ele>358</ele>
        <time>2018-10-03T09:43:56Z</time>
      </trkpt>
      <trkpt lat="43.00407" lon="1.98929">
        <ele>358</ele>
        <time>2018-10-03T09:44:02Z</time>
      </trkpt>
      <trkpt lat="43.00354" lon="1.98935">
        <ele>358.26709</ele>
        <time>2018-10-03T09:44:12Z</time>
      </trkpt>
      <trkpt lat="43.00329" lon="1.9894">
        <ele>358.542816</ele>
        <time>2018-10-03T09:44:18Z</time>
      </trkpt>
      <trkpt lat="43.00324" lon="1.98916">
        <ele>359.458282</ele>
        <time>2018-10-03T09:44:25Z</time>
      </trkpt>
      <trkpt lat="43.00328" lon="1.98894">
        <ele>360.077972</ele>
        <time>2018-10-03T09:44:33Z</time>
      </trkpt>
      <trkpt lat="43.00329" lon="1.98873">
        <ele>361.220917</ele>
        <time>2018-10-03T09:44:47Z</time>
      </trkpt>
      <trkpt lat="43.0033" lon="1.98866">
        <ele>361.468689</ele>
        <time>2018-10-03T09:44:53Z</time>
      </trkpt>
      <trkpt lat="43.00329" lon="1.98873">
        <ele>361.220917</ele>
        <time>2018-10-03T09:45:02Z</time>
      </trkpt>
      <trkpt lat="43.00349" lon="1.98849">
        <ele>360.719055</ele>
        <time>2018-10-03T09:45:31Z</time>
      </trkpt>
      <trkpt lat="43.00356" lon="1.98845">
        <ele>360.307495</ele>
        <time>2018-10-03T09:45:34Z</time>
      </trkpt>
      <trkpt lat="43.00417" lon="1.98796">
        <ele>358.506104</ele>
        <time>2018-10-03T09:45:46Z</time>
      </trkpt>
      <trkpt lat="43.00444" lon="1.98779">
        <ele>357.092377</ele>
        <time>2018-10-03T09:45:51Z</time>
      </trkpt>
      <trkpt lat="43.00494" lon="1.9875">
        <ele>355.412323</ele>
        <time>2018-10-03T09:46:00Z</time>
      </trkpt>
      <trkpt lat="43.00518" lon="1.98743">
        <ele>354.571655</ele>
        <time>2018-10-03T09:46:04Z</time>
      </trkpt>
      <trkpt lat="43.00567" lon="1.98725">
        <ele>353.212494</ele>
        <time>2018-10-03T09:46:11Z</time>
      </trkpt>
      <trkpt lat="43.00603" lon="1.9871">
        <ele>353.221802</ele>
        <time>2018-10-03T09:46:17Z</time>
      </trkpt>
      <trkpt lat="43.00636" lon="1.98704">
        <ele>353.741608</ele>
        <time>2018-10-03T09:46:22Z</time>
      </trkpt>
      <trkpt lat="43.00664" lon="1.98696">
        <ele>354.246033</ele>
        <time>2018-10-03T09:46:27Z</time>
      </trkpt>
      <trkpt lat="43.00681" lon="1.98686">
        <ele>354.828064</ele>
        <time>2018-10-03T09:46:32Z</time>
      </trkpt>
      <trkpt lat="43.00726" lon="1.98637">
        <ele>359.208344</ele>
        <time>2018-10-03T09:46:40Z</time>
      </trkpt>
      <trkpt lat="43.00753" lon="1.98626">
        <ele>359.355591</ele>
        <time>2018-10-03T09:46:46Z</time>
      </trkpt>
      <trkpt lat="43.00782" lon="1.98603">
        <ele>358.149963</ele>
        <time>2018-10-03T09:46:52Z</time>
      </trkpt>
      <trkpt lat="43.008" lon="1.98582">
        <ele>358.025818</ele>
        <time>2018-10-03T09:46:59Z</time>
      </trkpt>
      <trkpt lat="43.00813" lon="1.98562">
        <ele>359.105194</ele>
        <time>2018-10-03T09:47:04Z</time>
      </trkpt>
      <trkpt lat="43.00849" lon="1.98499">
        <ele>359.000336</ele>
        <time>2018-10-03T09:47:16Z</time>
      </trkpt>
      <trkpt lat="43.00861" lon="1.98473">
        <ele>358.956879</ele>
        <time>2018-10-03T09:47:21Z</time>
      </trkpt>
      <trkpt lat="43.00876" lon="1.98435">
        <ele>357.965454</ele>
        <time>2018-10-03T09:47:27Z</time>
      </trkpt>
      <trkpt lat="43.00881" lon="1.98417">
        <ele>358.22464</ele>
        <time>2018-10-03T09:47:30Z</time>
      </trkpt>
      <trkpt lat="43.00896" lon="1.98331">
        <ele>359.734039</ele>
        <time>2018-10-03T09:47:38Z</time>
      </trkpt>
      <trkpt lat="43.00901" lon="1.98281">
        <ele>358.439728</ele>
        <time>2018-10-03T09:47:43Z</time>
      </trkpt>
      <trkpt lat="43.00901" lon="1.98187">
        <ele>357.028442</ele>
        <time>2018-10-03T09:47:52Z</time>
      </trkpt>
      <trkpt lat="43.00888" lon="1.98092">
        <ele>357.930695</ele>
        <time>2018-10-03T09:48:03Z</time>
      </trkpt>
      <trkpt lat="43.00877" lon="1.98043">
        <ele>358.14798</ele>
        <time>2018-10-03T09:48:09Z</time>
      </trkpt>
      <trkpt lat="43.00869" lon="1.98013">
        <ele>358.809998</ele>
        <time>2018-10-03T09:48:15Z</time>
      </trkpt>
      <trkpt lat="43.00849" lon="1.97928">
        <ele>359.804535</ele>
        <time>2018-10-03T09:48:24Z</time>
      </trkpt>
      <trkpt lat="43.00833" lon="1.9782">
        <ele>357.083923</ele>
        <time>2018-10-03T09:48:32Z</time>
      </trkpt>
      <trkpt lat="43.00827" lon="1.97786">
        <ele>356.996216</ele>
        <time>2018-10-03T09:48:36Z</time>
      </trkpt>
      <trkpt lat="43.00815" lon="1.97725">
        <ele>357.270203</ele>
        <time>2018-10-03T09:48:46Z</time>
      </trkpt>
      <trkpt lat="43.00797" lon="1.97651">
        <ele>357.504395</ele>
        <time>2018-10-03T09:48:53Z</time>
      </trkpt>
      <trkpt lat="43.00789" lon="1.9759">
        <ele>355.191223</ele>
        <time>2018-10-03T09:49:03Z</time>
      </trkpt>
      <trkpt lat="43.00772" lon="1.97495">
        <ele>355.714996</ele>
        <time>2018-10-03T09:49:14Z</time>
      </trkpt>
      <trkpt lat="43.00766" lon="1.9747">
        <ele>356.158875</ele>
        <time>2018-10-03T09:49:19Z</time>
      </trkpt>
      <trkpt lat="43.00753" lon="1.97354">
        <ele>355.971252</ele>
        <time>2018-10-03T09:49:31Z</time>
      </trkpt>
      <trkpt lat="43.00745" lon="1.97283">
        <ele>357.133759</ele>
        <time>2018-10-03T09:49:37Z</time>
      </trkpt>
      <trkpt lat="43.00751" lon="1.97239">
        <ele>356.549988</ele>
        <time>2018-10-03T09:49:46Z</time>
      </trkpt>
      <trkpt lat="43.00763" lon="1.97064">
        <ele>355.760773</ele>
        <time>2018-10-03T09:50:03Z</time>
      </trkpt>
      <trkpt lat="43.00765" lon="1.97021">
        <ele>356.322205</ele>
        <time>2018-10-03T09:50:08Z</time>
      </trkpt>
      <trkpt lat="43.00769" lon="1.9697">
        <ele>356.661377</ele>
        <time>2018-10-03T09:50:14Z</time>
      </trkpt>
      <trkpt lat="43.00778" lon="1.96903">
        <ele>355.777618</ele>
        <time>2018-10-03T09:50:22Z</time>
      </trkpt>
      <trkpt lat="43.00786" lon="1.96857">
        <ele>355.235168</ele>
        <time>2018-10-03T09:50:28Z</time>
      </trkpt>
      <trkpt lat="43.0079" lon="1.96811">
        <ele>356.34375</ele>
        <time>2018-10-03T09:50:33Z</time>
      </trkpt>
      <trkpt lat="43.00794" lon="1.96787">
        <ele>356.485168</ele>
        <time>2018-10-03T09:50:36Z</time>
      </trkpt>
      <trkpt lat="43.00802" lon="1.9671">
        <ele>355.964447</ele>
        <time>2018-10-03T09:50:44Z</time>
      </trkpt>
      <trkpt lat="43.00821" lon="1.96643">
        <ele>352.063202</ele>
        <time>2018-10-03T09:50:52Z</time>
      </trkpt>
      <trkpt lat="43.00836" lon="1.96606">
        <ele>350.567596</ele>
        <time>2018-10-03T09:50:58Z</time>
      </trkpt>
      <trkpt lat="43.00862" lon="1.96548">
        <ele>350.361816</ele>
        <time>2018-10-03T09:51:06Z</time>
      </trkpt>
      <trkpt lat="43.00888" lon="1.96508">
        <ele>351.961578</ele>
        <time>2018-10-03T09:51:13Z</time>
      </trkpt>
      <trkpt lat="43.00897" lon="1.96491">
        <ele>354.215546</ele>
        <time>2018-10-03T09:51:30Z</time>
      </trkpt>
      <trkpt lat="43.00927" lon="1.96455">
        <ele>359.545074</ele>
        <time>2018-10-03T09:52:03Z</time>
      </trkpt>
      <trkpt lat="43.00933" lon="1.96446">
        <ele>360.90625</ele>
        <time>2018-10-03T09:52:06Z</time>
      </trkpt>
      <trkpt lat="43.00923" lon="1.96451">
        <ele>360.176514</ele>
        <time>2018-10-03T09:52:40Z</time>
      </trkpt>
      <trkpt lat="43.00952" lon="1.96467">
        <ele>357.535889</ele>
        <time>2018-10-03T09:52:55Z</time>
      </trkpt>
      <trkpt lat="43.01315" lon="1.96201">
        <ele>353.900238</ele>
        <time>2018-10-03T09:53:09Z</time>
      </trkpt>
      <trkpt lat="43.01384" lon="1.96182">
        <ele>353.828308</ele>
        <time>2018-10-03T09:53:21Z</time>
      </trkpt>
      <trkpt lat="43.01402" lon="1.96179">
        <ele>353.197723</ele>
        <time>2018-10-03T09:53:24Z</time>
      </trkpt>
      <trkpt lat="43.01423" lon="1.96177">
        <ele>352.456207</ele>
        <time>2018-10-03T09:53:27Z</time>
      </trkpt>
      <trkpt lat="43.01466" lon="1.96167">
        <ele>352.181244</ele>
        <time>2018-10-03T09:53:33Z</time>
      </trkpt>
      <trkpt lat="43.015" lon="1.96161">
        <ele>350.571869</ele>
        <time>2018-10-03T09:53:39Z</time>
      </trkpt>
      <trkpt lat="43.01553" lon="1.9616">
        <ele>346.803284</ele>
        <time>2018-10-03T09:53:46Z</time>
      </trkpt>
      <trkpt lat="43.01585" lon="1.96164">
        <ele>346.637726</ele>
        <time>2018-10-03T09:53:52Z</time>
      </trkpt>
      <trkpt lat="43.01652" lon="1.96184">
        <ele>346.971069</ele>
        <time>2018-10-03T09:54:03Z</time>
      </trkpt>
      <trkpt lat="43.01709" lon="1.96208">
        <ele>346.153015</ele>
        <time>2018-10-03T09:54:13Z</time>
      </trkpt>
      <trkpt lat="43.01754" lon="1.96233">
        <ele>345.043762</ele>
        <time>2018-10-03T09:54:24Z</time>
      </trkpt>
      <trkpt lat="43.01776" lon="1.96242">
        <ele>345.162994</ele>
        <time>2018-10-03T09:54:32Z</time>
      </trkpt>
      <trkpt lat="43.01865" lon="1.96288">
        <ele>347.677155</ele>
        <time>2018-10-03T09:54:45Z</time>
      </trkpt>
      <trkpt lat="43.01908" lon="1.96322">
        <ele>344.717194</ele>
        <time>2018-10-03T09:54:54Z</time>
      </trkpt>
      <trkpt lat="43.01933" lon="1.9633">
        <ele>345.27002</ele>
        <time>2018-10-03T09:54:59Z</time>
      </trkpt>
      <trkpt lat="43.01969" lon="1.9634">
        <ele>346.875824</ele>
        <time>2018-10-03T09:55:06Z</time>
      </trkpt>
      <trkpt lat="43.02052" lon="1.9638">
        <ele>345.202148</ele>
        <time>2018-10-03T09:55:18Z</time>
      </trkpt>
      <trkpt lat="43.02081" lon="1.9639">
        <ele>345.202667</ele>
        <time>2018-10-03T09:55:23Z</time>
      </trkpt>
      <trkpt lat="43.0212" lon="1.96399">
        <ele>344.34317</ele>
        <time>2018-10-03T09:55:32Z</time>
      </trkpt>
      <trkpt lat="43.02148" lon="1.964">
        <ele>342.576935</ele>
        <time>2018-10-03T09:55:38Z</time>
      </trkpt>
      <trkpt lat="43.02162" lon="1.96414">
        <ele>340.501617</ele>
        <time>2018-10-03T09:55:44Z</time>
      </trkpt>
      <trkpt lat="43.02159" lon="1.96441">
        <ele>339.289581</ele>
        <time>2018-10-03T09:55:52Z</time>
      </trkpt>
      <trkpt lat="43.02164" lon="1.96487">
        <ele>338.860077</ele>
        <time>2018-10-03T09:56:01Z</time>
      </trkpt>
      <trkpt lat="43.02156" lon="1.96526">
        <ele>338.592499</ele>
        <time>2018-10-03T09:56:09Z</time>
      </trkpt>
      <trkpt lat="43.02154" lon="1.96567">
        <ele>338.589172</ele>
        <time>2018-10-03T09:56:17Z</time>
      </trkpt>
      <trkpt lat="43.02144" lon="1.96658">
        <ele>339</ele>
        <time>2018-10-03T09:56:27Z</time>
      </trkpt>
      <trkpt lat="43.02145" lon="1.96704">
        <ele>339.111267</ele>
        <time>2018-10-03T09:56:32Z</time>
      </trkpt>
      <trkpt lat="43.02128" lon="1.96712">
        <ele>339.049988</ele>
        <time>2018-10-03T09:56:37Z</time>
      </trkpt>
      <trkpt lat="43.0211" lon="1.96715">
        <ele>339.442505</ele>
        <time>2018-10-03T09:56:41Z</time>
      </trkpt>
      <trkpt lat="43.02081" lon="1.96721">
        <ele>339.938568</ele>
        <time>2018-10-03T09:56:46Z</time>
      </trkpt>
      <trkpt lat="43.02028" lon="1.96723">
        <ele>339.079987</ele>
        <time>2018-10-03T09:56:52Z</time>
      </trkpt>
      <trkpt lat="43.01993" lon="1.96726">
        <ele>338.247498</ele>
        <time>2018-10-03T09:56:58Z</time>
      </trkpt>
      <trkpt lat="43.01965" lon="1.96749">
        <ele>337.298004</ele>
        <time>2018-10-03T09:57:03Z</time>
      </trkpt>
      <trkpt lat="43.01918" lon="1.96803">
        <ele>337.698608</ele>
        <time>2018-10-03T09:57:14Z</time>
      </trkpt>
      <trkpt lat="43.01876" lon="1.96856">
        <ele>342.07254</ele>
        <time>2018-10-03T09:57:26Z</time>
      </trkpt>
      <trkpt lat="43.01849" lon="1.96855">
        <ele>345.612701</ele>
        <time>2018-10-03T09:57:31Z</time>
      </trkpt>
      <trkpt lat="43.01828" lon="1.96832">
        <ele>347.317932</ele>
        <time>2018-10-03T09:57:35Z</time>
      </trkpt>
      <trkpt lat="43.01821" lon="1.96808">
        <ele>345.458588</ele>
        <time>2018-10-03T09:57:39Z</time>
      </trkpt>
      <trkpt lat="43.01828" lon="1.968">
        <ele>344.074585</ele>
        <time>2018-10-03T09:57:47Z</time>
      </trkpt>
      <trkpt lat="43.01813" lon="1.96753">
        <ele>343.029999</ele>
        <time>2018-10-03T09:57:54Z</time>
      </trkpt>
      <trkpt lat="43.01799" lon="1.96718">
        <ele>343.466583</ele>
        <time>2018-10-03T09:57:59Z</time>
      </trkpt>
      <trkpt lat="43.01784" lon="1.9667">
        <ele>343.195343</ele>
        <time>2018-10-03T09:58:05Z</time>
      </trkpt>
      <trkpt lat="43.01766" lon="1.96631">
        <ele>343.172882</ele>
        <time>2018-10-03T09:58:10Z</time>
      </trkpt>
      <trkpt lat="43.01751" lon="1.96613">
        <ele>344.518951</ele>
        <time>2018-10-03T09:58:15Z</time>
      </trkpt>
      <trkpt lat="43.01729" lon="1.96594">
        <ele>346.627655</ele>
        <time>2018-10-03T09:58:20Z</time>
      </trkpt>
      <trkpt lat="43.01705" lon="1.96577">
        <ele>347.652008</ele>
        <time>2018-10-03T09:58:25Z</time>
      </trkpt>
      <trkpt lat="43.01684" lon="1.96564">
        <ele>348.761505</ele>
        <time>2018-10-03T09:58:31Z</time>
      </trkpt>
      <trkpt lat="43.0166" lon="1.96555">
        <ele>348.838593</ele>
        <time>2018-10-03T09:58:36Z</time>
      </trkpt>
      <trkpt lat="43.01622" lon="1.96547">
        <ele>349.167572</ele>
        <time>2018-10-03T09:58:42Z</time>
      </trkpt>
      <trkpt lat="43.01556" lon="1.96544">
        <ele>348.835785</ele>
        <time>2018-10-03T09:58:57Z</time>
      </trkpt>
      <trkpt lat="43.01533" lon="1.96551">
        <ele>349.936829</ele>
        <time>2018-10-03T09:59:02Z</time>
      </trkpt>
      <trkpt lat="43.01522" lon="1.96574">
        <ele>353.082306</ele>
        <time>2018-10-03T09:59:09Z</time>
      </trkpt>
      <trkpt lat="43.01513" lon="1.96595">
        <ele>356.075897</ele>
        <time>2018-10-03T09:59:17Z</time>
      </trkpt>
      <trkpt lat="43.01506" lon="1.9662">
        <ele>358.724457</ele>
        <time>2018-10-03T09:59:26Z</time>
      </trkpt>
      <trkpt lat="43.01498" lon="1.96632">
        <ele>359.921661</ele>
        <time>2018-10-03T09:59:33Z</time>
      </trkpt>
      <trkpt lat="43.01487" lon="1.96651">
        <ele>362.431335</ele>
        <time>2018-10-03T09:59:45Z</time>
      </trkpt>
      <trkpt lat="43.01484" lon="1.96669">
        <ele>364.32431</ele>
        <time>2018-10-03T09:59:56Z</time>
      </trkpt>
      <trkpt lat="43.0147" lon="1.96693">
        <ele>366.591309</ele>
        <time>2018-10-03T10:00:08Z</time>
      </trkpt>
      <trkpt lat="43.01461" lon="1.96697">
        <ele>366.72699</ele>
        <time>2018-10-03T10:00:16Z</time>
      </trkpt>
      <trkpt lat="43.0145" lon="1.96717">
        <ele>369.792542</ele>
        <time>2018-10-03T10:00:27Z</time>
      </trkpt>
      <trkpt lat="43.01416" lon="1.96797">
        <ele>377.696198</ele>
        <time>2018-10-03T10:00:54Z</time>
      </trkpt>
      <trkpt lat="43.01407" lon="1.96821">
        <ele>378.488403</ele>
        <time>2018-10-03T10:01:05Z</time>
      </trkpt>
      <trkpt lat="43.01391" lon="1.96857">
        <ele>379.456726</ele>
        <time>2018-10-03T10:01:29Z</time>
      </trkpt>
      <trkpt lat="43.01392" lon="1.96894">
        <ele>380.233612</ele>
        <time>2018-10-03T10:01:43Z</time>
      </trkpt>
      <trkpt lat="43.01376" lon="1.96971">
        <ele>384.357483</ele>
        <time>2018-10-03T10:02:12Z</time>
      </trkpt>
      <trkpt lat="43.01368" lon="1.97024">
        <ele>387.98999</ele>
        <time>2018-10-03T10:02:23Z</time>
      </trkpt>
      <trkpt lat="43.01369" lon="1.97066">
        <ele>390.212952</ele>
        <time>2018-10-03T10:02:35Z</time>
      </trkpt>
      <trkpt lat="43.01368" lon="1.97082">
        <ele>390.448456</ele>
        <time>2018-10-03T10:02:43Z</time>
      </trkpt>
      <trkpt lat="43.01371" lon="1.97115">
        <ele>391.100128</ele>
        <time>2018-10-03T10:02:54Z</time>
      </trkpt>
      <trkpt lat="43.01374" lon="1.97132">
        <ele>391.535004</ele>
        <time>2018-10-03T10:03:00Z</time>
      </trkpt>
      <trkpt lat="43.01391" lon="1.97192">
        <ele>393.258759</ele>
        <time>2018-10-03T10:03:17Z</time>
      </trkpt>
      <trkpt lat="43.014" lon="1.97216">
        <ele>394.05249</ele>
        <time>2018-10-03T10:03:24Z</time>
      </trkpt>
      <trkpt lat="43.01413" lon="1.97239">
        <ele>395.024994</ele>
        <time>2018-10-03T10:03:32Z</time>
      </trkpt>
      <trkpt lat="43.01429" lon="1.97259">
        <ele>396.852814</ele>
        <time>2018-10-03T10:03:40Z</time>
      </trkpt>
      <trkpt lat="43.01438" lon="1.97281">
        <ele>398.448303</ele>
        <time>2018-10-03T10:03:47Z</time>
      </trkpt>
      <trkpt lat="43.01469" lon="1.97322">
        <ele>404.063843</ele>
        <time>2018-10-03T10:04:04Z</time>
      </trkpt>
      <trkpt lat="43.01494" lon="1.97362">
        <ele>409.796814</ele>
        <time>2018-10-03T10:04:20Z</time>
      </trkpt>
      <trkpt lat="43.015" lon="1.97384">
        <ele>410.923157</ele>
        <time>2018-10-03T10:04:28Z</time>
      </trkpt>
      <trkpt lat="43.01489" lon="1.97422">
        <ele>410.756439</ele>
        <time>2018-10-03T10:04:38Z</time>
      </trkpt>
      <trkpt lat="43.01479" lon="1.97479">
        <ele>412.192535</ele>
        <time>2018-10-03T10:04:48Z</time>
      </trkpt>
      <trkpt lat="43.01471" lon="1.97508">
        <ele>412.497803</ele>
        <time>2018-10-03T10:04:54Z</time>
      </trkpt>
      <trkpt lat="43.01448" lon="1.97563">
        <ele>413.455933</ele>
        <time>2018-10-03T10:05:16Z</time>
      </trkpt>
      <trkpt lat="43.01436" lon="1.97616">
        <ele>415.677307</ele>
        <time>2018-10-03T10:05:33Z</time>
      </trkpt>
      <trkpt lat="43.01431" lon="1.97641">
        <ele>417.196045</ele>
        <time>2018-10-03T10:05:40Z</time>
      </trkpt>
      <trkpt lat="43.01433" lon="1.9767">
        <ele>419.023773</ele>
        <time>2018-10-03T10:05:47Z</time>
      </trkpt>
      <trkpt lat="43.01429" lon="1.9769">
        <ele>420.073517</ele>
        <time>2018-10-03T10:06:04Z</time>
      </trkpt>
      <trkpt lat="43.01431" lon="1.97684">
        <ele>419.788727</ele>
        <time>2018-10-03T10:06:27Z</time>
      </trkpt>
    </trkseg>
  </trk>
</gpx>